Time,TemperatureF,DewpointF,PressureIn,WindDirection,WindDirectionDegrees,WindSpeedMPH,WindSpeedGustMPH,Humidity,HourlyPrecipIn,Conditions,Clouds,dailyrainin,SoftwareType,DateUTC
2013-02-03 00:00:00,55.9,49.8,29.78,ESE,112,3.1,3.1,80,0.00,,,0.00,VWS V14.00,2013-02-02 22:00:00,
2013-02-03 00:03:00,55.9,49.8,29.78,ESE,112,3.1,3.1,80,0.00,,,0.00,VWS V14.00,2013-02-02 22:03:00,
2013-02-03 00:04:00,55.9,49.8,29.77,South,180,4.4,4.4,80,0.00,,,0.00,VWS V14.00,2013-02-02 22:04:00,
2013-02-03 00:05:00,55.9,49.8,29.77,South,180,4.4,4.4,80,0.00,,,0.00,VWS V14.00,2013-02-02 22:05:00,
2013-02-03 00:08:00,56.1,50.0,29.77,WSW,248,3.1,4.4,80,0.00,,,0.00,VWS V14.00,2013-02-02 22:08:00,
2013-02-03 00:09:00,56.1,50.0,29.77,WSW,248,3.1,4.4,80,0.00,,,0.00,VWS V14.00,2013-02-02 22:09:00,
2013-02-03 00:10:00,56.1,50.0,29.77,WSW,248,3.1,4.4,80,0.00,,,0.00,VWS V14.00,2013-02-02 22:10:00,
2013-02-03 00:13:00,56.1,50.4,29.77,SE,135,2.6,3.1,81,0.00,,,0.00,VWS V14.00,2013-02-02 22:13:00,
2013-02-03 00:14:00,56.1,50.4,29.78,SE,135,2.6,3.1,81,0.00,,,0.00,VWS V14.00,2013-02-02 22:14:00,
2013-02-03 00:15:00,56.1,50.4,29.78,SE,135,2.6,3.1,81,0.00,,,0.00,VWS V14.00,2013-02-02 22:15:00,
2013-02-03 00:18:00,56.1,50.4,29.77,SE,135,0.0,2.4,81,0.00,,,0.00,VWS V14.00,2013-02-02 22:18:00,
2013-02-03 00:19:00,56.1,50.4,29.77,SE,135,2.9,2.9,81,0.00,,,0.00,VWS V14.00,2013-02-02 22:19:00,
2013-02-03 00:20:00,56.1,50.4,29.77,SE,135,2.9,2.9,81,0.00,,,0.00,VWS V14.00,2013-02-02 22:20:00,
2013-02-03 00:21:00,56.1,50.4,29.77,SSW,202,2.4,2.9,81,0.00,,,0.00,VWS V14.00,2013-02-02 22:21:00,
2013-02-03 00:24:00,56.1,50.4,29.77,SSE,158,1.5,2.9,81,0.00,,,0.00,VWS V14.00,2013-02-02 22:24:00,
2013-02-03 00:25:00,56.1,50.4,29.77,SSE,158,1.5,2.9,81,0.00,,,0.00,VWS V14.00,2013-02-02 22:25:00,
2013-02-03 00:26:00,56.1,50.7,29.77,SSE,158,7.1,7.1,82,0.00,,,0.00,VWS V14.00,2013-02-02 22:26:00,
2013-02-03 00:29:00,56.1,50.7,29.77,East,90,2.9,7.1,82,0.00,,,0.00,VWS V14.00,2013-02-02 22:29:00,
2013-02-03 00:30:00,56.1,50.7,29.77,East,90,2.0,2.0,82,0.00,,,0.00,VWS V14.00,2013-02-02 22:30:00,
2013-02-03 00:31:00,56.1,50.7,29.77,East,90,2.0,2.0,82,0.00,,,0.00,VWS V14.00,2013-02-02 22:31:00,
2013-02-03 00:34:00,56.1,50.7,29.77,South,180,6.9,6.9,82,0.00,,,0.00,VWS V14.00,2013-02-02 22:34:00,
2013-02-03 00:35:00,56.1,50.7,29.77,West,270,0.0,0.0,82,0.00,,,0.00,VWS V14.00,2013-02-02 22:35:00,
2013-02-03 00:36:00,55.9,50.5,29.77,ENE,68,4.2,4.2,82,0.00,,,0.00,VWS V14.00,2013-02-02 22:36:00,
2013-02-03 00:39:00,55.9,50.5,29.77,SW,225,8.9,8.9,82,0.00,,,0.00,VWS V14.00,2013-02-02 22:39:00,
2013-02-03 00:40:00,55.9,50.5,29.77,South,180,4.0,4.0,82,0.00,,,0.00,VWS V14.00,2013-02-02 22:40:00,
2013-02-03 00:41:00,55.9,50.5,29.77,South,180,4.0,4.0,82,0.00,,,0.00,VWS V14.00,2013-02-02 22:41:00,
2013-02-03 00:44:00,55.9,50.5,29.77,SSW,202,6.9,6.9,82,0.00,,,0.00,VWS V14.00,2013-02-02 22:44:00,
2013-02-03 00:45:00,55.9,50.5,29.77,WSW,248,10.5,10.5,82,0.00,,,0.00,VWS V14.00,2013-02-02 22:45:00,
2013-02-03 00:46:00,55.9,50.5,29.77,WSW,248,10.5,10.5,82,0.00,,,0.00,VWS V14.00,2013-02-02 22:46:00,
2013-02-03 00:49:00,55.9,50.5,29.77,SSW,202,8.9,10.5,82,0.00,,,0.00,VWS V14.00,2013-02-02 22:49:00,
2013-02-03 00:50:00,55.9,50.5,29.77,SSE,158,0.0,0.0,82,0.00,,,0.00,VWS V14.00,2013-02-02 22:50:00,
2013-02-03 00:52:00,55.9,50.5,29.77,South,180,3.8,3.8,82,0.00,,,0.00,VWS V14.00,2013-02-02 22:52:00,
2013-02-03 00:54:00,55.9,50.5,29.77,SSE,158,0.6,3.8,82,0.00,,,0.00,VWS V14.00,2013-02-02 22:54:00,
2013-02-03 00:55:00,55.9,50.5,29.77,East,90,3.1,3.1,82,0.00,,,0.00,VWS V14.00,2013-02-02 22:55:00,
2013-02-03 00:56:00,55.9,50.5,29.77,East,90,3.1,3.1,82,0.00,,,0.00,VWS V14.00,2013-02-02 22:56:00,
2013-02-03 00:59:00,55.9,50.5,29.77,SSW,202,2.0,3.1,82,0.00,,,0.00,VWS V14.00,2013-02-02 22:59:00,
2013-02-03 01:00:00,55.9,50.5,29.77,SSE,158,3.8,3.8,82,0.00,,,0.00,VWS V14.00,2013-02-02 23:00:00,
2013-02-03 01:02:00,55.9,50.5,29.77,SSE,158,3.8,3.8,82,0.00,,,0.00,VWS V14.00,2013-02-02 23:02:00,
2013-02-03 01:04:00,55.9,50.5,29.76,SSW,202,4.0,4.0,82,0.00,,,0.00,VWS V14.00,2013-02-02 23:04:00,
2013-02-03 01:05:00,55.9,50.5,29.77,SSW,202,4.0,4.0,82,0.00,,,0.00,VWS V14.00,2013-02-02 23:05:00,
2013-02-03 01:06:00,55.9,50.5,29.77,SW,225,7.3,7.3,82,0.00,,,0.00,VWS V14.00,2013-02-02 23:06:00,
2013-02-03 01:09:00,55.9,50.5,29.76,East,90,0.0,7.3,82,0.00,,,0.00,VWS V14.00,2013-02-02 23:09:00,
2013-02-03 01:10:00,55.9,50.5,29.76,SW,225,6.7,6.7,82,0.00,,,0.00,VWS V14.00,2013-02-02 23:10:00,
2013-02-03 01:12:00,55.9,50.5,29.76,SW,225,6.7,6.7,82,0.00,,,0.00,VWS V14.00,2013-02-02 23:12:00,
2013-02-03 01:14:00,55.9,50.5,29.76,East,90,3.1,6.7,82,0.00,,,0.00,VWS V14.00,2013-02-02 23:14:00,
2013-02-03 01:15:00,55.9,50.5,29.76,East,90,4.4,4.4,82,0.00,,,0.00,VWS V14.00,2013-02-02 23:15:00,
2013-02-03 01:17:00,55.9,50.5,29.76,East,90,4.4,4.4,82,0.00,,,0.00,VWS V14.00,2013-02-02 23:17:00,
2013-02-03 01:19:00,55.9,50.5,29.76,SSW,202,5.3,13.8,82,0.00,,,0.00,VWS V14.00,2013-02-02 23:19:00,
2013-02-03 01:20:00,55.9,50.5,29.76,SSW,202,5.3,5.3,82,0.00,,,0.00,VWS V14.00,2013-02-02 23:20:00,
2013-02-03 01:22:00,55.9,50.5,29.76,SW,225,6.9,6.9,82,0.00,,,0.00,VWS V14.00,2013-02-02 23:22:00,
2013-02-03 01:24:00,55.9,50.5,29.77,ESE,112,2.2,6.9,82,0.00,,,0.00,VWS V14.00,2013-02-02 23:24:00,
2013-02-03 01:25:00,55.9,50.5,29.77,ESE,112,4.0,4.0,82,0.00,,,0.00,VWS V14.00,2013-02-02 23:25:00,
2013-02-03 01:27:00,55.9,50.5,29.77,SSE,158,4.6,4.6,82,0.00,,,0.00,VWS V14.00,2013-02-02 23:27:00,
2013-02-03 01:29:00,55.9,50.5,29.77,SSE,158,4.6,4.6,82,0.00,,,0.00,VWS V14.00,2013-02-02 23:29:00,
2013-02-03 01:30:00,55.9,50.5,29.77,SSE,158,4.6,4.6,82,0.00,,,0.00,VWS V14.00,2013-02-02 23:30:00,
2013-02-03 01:32:00,55.9,50.5,29.77,ENE,68,4.6,8.0,82,0.00,,,0.00,VWS V14.00,2013-02-02 23:32:00,
2013-02-03 01:34:00,55.9,50.5,29.77,WSW,248,2.0,8.0,82,0.00,,,0.00,VWS V14.00,2013-02-02 23:34:00,
2013-02-03 01:35:00,55.9,50.5,29.77,WSW,248,2.0,8.0,82,0.00,,,0.00,VWS V14.00,2013-02-02 23:35:00,
2013-02-03 01:37:00,55.9,50.5,29.77,SSE,158,4.6,4.6,82,0.00,,,0.00,VWS V14.00,2013-02-02 23:37:00,
2013-02-03 01:39:00,55.9,50.5,29.77,SE,135,6.2,6.2,82,0.00,,,0.00,VWS V14.00,2013-02-02 23:39:00,
2013-02-03 01:40:00,55.9,50.5,29.77,South,180,5.1,6.2,82,0.00,,,0.00,VWS V14.00,2013-02-02 23:40:00,
2013-02-03 01:41:00,55.9,50.5,29.77,South,180,5.1,5.1,82,0.00,,,0.00,VWS V14.00,2013-02-02 23:41:00,
2013-02-03 01:42:00,55.9,50.5,29.77,SSE,158,2.4,5.1,82,0.00,,,0.00,VWS V14.00,2013-02-02 23:42:00,
2013-02-03 01:44:00,55.9,50.5,29.77,SSE,158,2.4,5.1,82,0.00,,,0.00,VWS V14.00,2013-02-02 23:44:00,
2013-02-03 01:45:00,55.9,50.5,29.77,ESE,112,11.1,11.1,82,0.00,,,0.00,VWS V14.00,2013-02-02 23:45:00,
2013-02-03 01:46:00,55.9,50.5,29.77,ESE,112,11.1,11.1,82,0.00,,,0.00,VWS V14.00,2013-02-02 23:46:00,
2013-02-03 01:47:00,55.9,50.5,29.77,SE,135,1.7,11.1,82,0.00,,,0.00,VWS V14.00,2013-02-02 23:47:00,
2013-02-03 01:49:00,55.9,50.5,29.77,South,180,14.0,14.0,82,0.00,,,0.00,VWS V14.00,2013-02-02 23:49:00,
2013-02-03 01:50:00,55.9,50.5,29.78,South,180,14.0,14.0,82,0.00,,,0.00,VWS V14.00,2013-02-02 23:50:00,
2013-02-03 01:51:00,55.9,50.5,29.78,South,180,14.0,14.0,82,0.00,,,0.00,VWS V14.00,2013-02-02 23:51:00,
2013-02-03 01:52:00,55.9,50.5,29.78,SSW,202,5.3,14.0,82,0.00,,,0.00,VWS V14.00,2013-02-02 23:52:00,
2013-02-03 01:54:00,55.9,50.5,29.78,South,180,7.1,14.0,82,0.00,,,0.00,VWS V14.00,2013-02-02 23:54:00,
2013-02-03 01:55:00,55.9,50.5,29.78,WNW,292,2.2,2.2,82,0.00,,,0.00,VWS V14.00,2013-02-02 23:55:00,
2013-02-03 01:56:00,55.9,50.5,29.78,WNW,292,2.2,2.2,82,0.00,,,0.00,VWS V14.00,2013-02-02 23:56:00,
2013-02-03 01:57:00,55.9,50.5,29.78,SSE,158,8.9,8.9,82,0.00,,,0.00,VWS V14.00,2013-02-02 23:57:00,
2013-02-03 01:59:00,55.9,50.5,29.78,SSE,158,8.9,8.9,82,0.00,,,0.00,VWS V14.00,2013-02-02 23:59:00,
2013-02-03 02:00:00,55.9,50.5,29.78,ESE,112,4.9,4.9,82,0.00,,,0.00,VWS V14.00,2013-02-03 00:00:00,
2013-02-03 02:01:00,55.9,50.5,29.78,ESE,112,4.9,4.9,82,0.00,,,0.00,VWS V14.00,2013-02-03 00:01:00,
2013-02-03 02:02:00,55.9,50.5,29.77,ESE,112,4.9,4.9,82,0.00,,,0.00,VWS V14.00,2013-02-03 00:02:00,
2013-02-03 02:04:00,56.1,50.7,29.77,SE,135,4.6,4.9,82,0.00,,,0.00,VWS V14.00,2013-02-03 00:04:00,
2013-02-03 02:05:00,56.1,50.7,29.77,SE,135,4.6,4.6,82,0.00,,,0.00,VWS V14.00,2013-02-03 00:05:00,
2013-02-03 02:06:00,56.1,50.7,29.77,SE,135,4.2,4.6,82,0.00,,,0.00,VWS V14.00,2013-02-03 00:06:00,
2013-02-03 02:07:00,56.1,50.7,29.77,SE,135,4.2,4.6,82,0.00,,,0.00,VWS V14.00,2013-02-03 00:07:00,
2013-02-03 02:09:00,56.1,50.7,29.77,SW,225,8.2,8.2,82,0.00,,,0.00,VWS V14.00,2013-02-03 00:09:00,
2013-02-03 02:10:00,56.1,50.7,29.77,SSW,202,3.8,3.8,82,0.00,,,0.00,VWS V14.00,2013-02-03 00:10:00,
2013-02-03 02:11:00,56.1,50.7,29.77,SSW,202,3.8,3.8,82,0.00,,,0.00,VWS V14.00,2013-02-03 00:11:00,
2013-02-03 02:12:00,56.1,50.7,29.77,SW,225,0.0,3.8,82,0.00,,,0.00,VWS V14.00,2013-02-03 00:12:00,
2013-02-03 02:14:00,56.1,50.7,29.77,SW,225,0.0,3.8,82,0.00,,,0.00,VWS V14.00,2013-02-03 00:14:00,
2013-02-03 02:15:00,56.1,50.7,29.77,ENE,68,5.8,5.8,82,0.00,,,0.00,VWS V14.00,2013-02-03 00:15:00,
2013-02-03 02:16:00,56.1,50.7,29.77,ENE,68,5.8,5.8,82,0.00,,,0.00,VWS V14.00,2013-02-03 00:16:00,
2013-02-03 02:17:00,56.3,50.9,29.77,SW,225,1.7,5.8,82,0.00,,,0.00,VWS V14.00,2013-02-03 00:17:00,
2013-02-03 02:19:00,56.3,51.2,29.77,ESE,112,15.8,15.8,83,0.00,,,0.00,VWS V14.00,2013-02-03 00:19:00,
2013-02-03 02:20:00,56.3,51.2,29.77,ESE,112,15.8,15.8,83,0.00,,,0.00,VWS V14.00,2013-02-03 00:20:00,
2013-02-03 02:21:00,56.3,51.2,29.77,NW,315,4.2,15.8,83,0.00,,,0.00,VWS V14.00,2013-02-03 00:21:00,
2013-02-03 02:22:00,56.3,51.2,29.77,NW,315,4.2,15.8,83,0.00,,,0.00,VWS V14.00,2013-02-03 00:22:00,
2013-02-03 02:25:00,56.3,51.2,29.77,South,180,11.1,15.8,83,0.00,,,0.00,VWS V14.00,2013-02-03 00:25:00,
2013-02-03 02:27:00,56.3,51.2,29.77,SW,225,2.4,2.4,83,0.00,,,0.00,VWS V14.00,2013-02-03 00:27:00,
2013-02-03 02:30:00,56.4,51.3,29.77,ESE,112,13.1,13.1,83,0.00,,,0.00,VWS V14.00,2013-02-03 00:30:00,
2013-02-03 02:32:00,56.4,51.3,29.77,SSE,158,8.0,8.0,83,0.00,,,0.00,VWS V14.00,2013-02-03 00:32:00,
2013-02-03 02:35:00,56.4,51.6,29.77,SW,225,18.5,18.5,84,0.00,,,0.00,VWS V14.00,2013-02-03 00:35:00,
2013-02-03 02:37:00,56.4,51.6,29.77,WSW,248,3.8,18.5,84,0.00,,,0.00,VWS V14.00,2013-02-03 00:37:00,
2013-02-03 02:40:00,56.4,51.6,29.77,SSW,202,11.4,11.4,84,0.00,,,0.00,VWS V14.00,2013-02-03 00:40:00,
2013-02-03 02:42:00,56.4,51.6,29.77,SSW,202,11.4,11.4,84,0.00,,,0.00,VWS V14.00,2013-02-03 00:42:00,
2013-02-03 02:45:00,56.4,51.6,29.78,East,90,4.6,4.6,84,0.00,,,0.00,VWS V14.00,2013-02-03 00:45:00,
2013-02-03 02:47:00,56.4,51.6,29.78,East,90,4.6,4.6,84,0.00,,,0.00,VWS V14.00,2013-02-03 00:47:00,
2013-02-03 02:50:00,56.4,51.6,29.77,SE,135,5.1,5.1,84,0.00,,,0.00,VWS V14.00,2013-02-03 00:50:00,
2013-02-03 02:52:00,56.4,51.6,29.77,ESE,112,3.1,5.1,84,0.00,,,0.00,VWS V14.00,2013-02-03 00:52:00,
2013-02-03 02:55:00,56.4,52.0,29.77,SSE,158,7.8,7.8,85,0.00,,,0.00,VWS V14.00,2013-02-03 00:55:00,
2013-02-03 02:57:00,56.4,52.0,29.77,ESE,112,1.5,7.8,85,0.00,,,0.00,VWS V14.00,2013-02-03 00:57:00,
2013-02-03 03:00:00,56.4,52.0,29.77,South,180,20.3,20.3,85,0.00,,,0.00,VWS V14.00,2013-02-03 01:00:00,
2013-02-03 03:02:00,56.4,52.0,29.77,South,180,20.3,20.3,85,0.00,,,0.00,VWS V14.00,2013-02-03 01:02:00,
2013-02-03 03:05:00,56.4,52.0,29.77,South,180,4.4,4.4,85,0.00,,,0.00,VWS V14.00,2013-02-03 01:05:00,
2013-02-03 03:07:00,56.4,52.0,29.77,SW,225,11.6,11.6,85,0.00,,,0.00,VWS V14.00,2013-02-03 01:07:00,
2013-02-03 03:08:00,56.4,52.0,29.77,SW,225,11.6,11.6,85,0.00,,,0.00,VWS V14.00,2013-02-03 01:08:00,
2013-02-03 03:10:00,56.4,52.0,29.77,East,90,5.1,5.1,85,0.00,,,0.00,VWS V14.00,2013-02-03 01:10:00,
2013-02-03 03:11:00,56.4,52.0,29.77,East,90,5.1,5.1,85,0.00,,,0.00,VWS V14.00,2013-02-03 01:11:00,
2013-02-03 03:12:00,56.4,52.0,29.77,South,180,10.5,10.5,85,0.00,,,0.00,VWS V14.00,2013-02-03 01:12:00,
2013-02-03 03:13:00,56.4,52.0,29.77,SE,135,8.9,10.5,85,0.00,,,0.00,VWS V14.00,2013-02-03 01:13:00,
2013-02-03 03:15:00,56.4,52.0,29.77,South,180,5.3,5.3,85,0.00,,,0.00,VWS V14.00,2013-02-03 01:15:00,
2013-02-03 03:16:00,56.4,52.0,29.77,South,180,5.3,5.3,85,0.00,,,0.00,VWS V14.00,2013-02-03 01:16:00,
2013-02-03 03:17:00,56.4,52.0,29.77,South,180,9.6,9.6,85,0.00,,,0.00,VWS V14.00,2013-02-03 01:17:00,
2013-02-03 03:18:00,56.4,52.0,29.78,South,180,9.6,9.6,85,0.00,,,0.00,VWS V14.00,2013-02-03 01:18:00,
2013-02-03 03:20:00,56.4,52.0,29.78,East,90,4.4,4.4,85,0.00,,,0.00,VWS V14.00,2013-02-03 01:20:00,
2013-02-03 03:21:00,56.4,52.0,29.78,East,90,4.4,4.4,85,0.00,,,0.00,VWS V14.00,2013-02-03 01:21:00,
2013-02-03 03:22:00,56.4,52.0,29.78,South,180,5.3,5.3,85,0.00,,,0.00,VWS V14.00,2013-02-03 01:22:00,
2013-02-03 03:23:00,56.4,52.0,29.78,South,180,5.3,5.3,85,0.00,,,0.00,VWS V14.00,2013-02-03 01:23:00,
2013-02-03 03:25:00,56.4,52.0,29.78,WSW,248,15.8,15.8,85,0.00,,,0.00,VWS V14.00,2013-02-03 01:25:00,
2013-02-03 03:26:00,56.4,52.0,29.78,WSW,248,15.8,15.8,85,0.00,,,0.00,VWS V14.00,2013-02-03 01:26:00,
2013-02-03 03:27:00,56.4,52.0,29.77,ESE,112,11.4,15.8,85,0.00,,,0.00,VWS V14.00,2013-02-03 01:27:00,
2013-02-03 03:28:00,56.4,52.0,29.77,ESE,112,11.4,15.8,85,0.00,,,0.00,VWS V14.00,2013-02-03 01:28:00,
2013-02-03 03:30:00,56.4,52.0,29.77,South,180,7.1,7.1,85,0.00,,,0.00,VWS V14.00,2013-02-03 01:30:00,
2013-02-03 03:31:00,56.4,52.0,29.77,South,180,7.1,7.1,85,0.00,,,0.00,VWS V14.00,2013-02-03 01:31:00,
2013-02-03 03:32:00,56.4,52.0,29.77,SSE,158,10.2,10.2,85,0.00,,,0.00,VWS V14.00,2013-02-03 01:32:00,
2013-02-03 03:33:00,56.4,52.0,29.77,SSW,202,10.9,10.9,85,0.00,,,0.00,VWS V14.00,2013-02-03 01:33:00,
2013-02-03 03:36:00,56.6,52.2,29.77,SW,225,8.0,8.0,85,0.00,,,0.00,VWS V14.00,2013-02-03 01:36:00,
2013-02-03 03:37:00,56.6,52.2,29.77,SSW,202,8.9,8.9,85,0.00,,,0.00,VWS V14.00,2013-02-03 01:37:00,
2013-02-03 03:38:00,56.6,52.2,29.77,SSW,202,8.9,8.9,85,0.00,,,0.00,VWS V14.00,2013-02-03 01:38:00,
2013-02-03 03:41:00,56.8,52.3,29.77,South,180,15.2,15.2,85,0.00,,,0.00,VWS V14.00,2013-02-03 01:41:00,
2013-02-03 03:42:00,56.6,52.2,29.77,SW,225,5.3,15.2,85,0.00,,,0.00,VWS V14.00,2013-02-03 01:42:00,
2013-02-03 03:43:00,56.6,52.2,29.77,SSW,202,12.9,15.2,85,0.00,,,0.00,VWS V14.00,2013-02-03 01:43:00,
2013-02-03 03:46:00,56.8,52.3,29.77,SSW,202,12.9,12.9,85,0.00,,,0.00,VWS V14.00,2013-02-03 01:46:00,
2013-02-03 03:47:00,56.8,52.3,29.77,East,90,5.1,12.9,85,0.00,,,0.00,VWS V14.00,2013-02-03 01:47:00,
2013-02-03 03:48:00,56.6,52.2,29.77,SW,225,7.3,12.9,85,0.00,,,0.00,VWS V14.00,2013-02-03 01:48:00,
2013-02-03 03:51:00,56.6,52.2,29.76,SSW,202,15.8,15.8,85,0.00,,,0.00,VWS V14.00,2013-02-03 01:51:00,
2013-02-03 03:52:00,56.6,52.2,29.77,East,90,14.3,15.8,85,0.00,,,0.00,VWS V14.00,2013-02-03 01:52:00,
2013-02-03 03:53:00,56.6,52.2,29.77,East,90,14.3,15.8,85,0.00,,,0.00,VWS V14.00,2013-02-03 01:53:00,
2013-02-03 03:56:00,56.8,52.3,29.77,East,90,7.6,7.6,85,0.00,,,0.00,VWS V14.00,2013-02-03 01:56:00,
2013-02-03 03:57:00,56.6,52.2,29.77,SE,135,5.5,7.6,85,0.00,,,0.00,VWS V14.00,2013-02-03 01:57:00,
2013-02-03 03:58:00,56.6,52.2,29.77,SSE,158,8.9,8.9,85,0.00,,,0.00,VWS V14.00,2013-02-03 01:58:00,
2013-02-03 04:01:00,56.8,52.3,29.77,SSE,158,8.9,8.9,85,0.00,,,0.00,VWS V14.00,2013-02-03 02:01:00,
2013-02-03 04:02:00,56.6,52.2,29.77,SSE,158,7.3,8.9,85,0.00,,,0.00,VWS V14.00,2013-02-03 02:02:00,
2013-02-03 04:03:00,56.8,52.3,29.77,South,180,11.8,11.8,85,0.00,,,0.00,VWS V14.00,2013-02-03 02:03:00,
2013-02-03 04:06:00,56.8,52.3,29.77,SE,135,12.0,12.0,85,0.00,,,0.00,VWS V14.00,2013-02-03 02:06:00,
2013-02-03 04:08:00,56.8,52.3,29.77,South,180,3.8,12.0,85,0.00,,,0.00,VWS V14.00,2013-02-03 02:08:00,
2013-02-03 04:11:00,56.8,52.3,29.77,SSW,202,5.5,5.5,85,0.00,,,0.00,VWS V14.00,2013-02-03 02:11:00,
2013-02-03 04:13:00,56.8,52.3,29.77,SSW,202,21.6,21.6,85,0.00,,,0.00,VWS V14.00,2013-02-03 02:13:00,
2013-02-03 04:16:00,56.8,52.3,29.77,SSE,158,8.9,8.9,85,0.00,,,0.00,VWS V14.00,2013-02-03 02:16:00,
2013-02-03 04:18:00,56.8,52.3,29.77,West,270,3.8,11.8,85,0.00,,,0.00,VWS V14.00,2013-02-03 02:18:00,
2013-02-03 04:19:00,56.8,52.3,29.77,West,270,3.8,11.8,85,0.00,,,0.00,VWS V14.00,2013-02-03 02:19:00,
2013-02-03 04:21:00,56.8,52.3,29.77,SSW,202,10.2,10.2,85,0.00,,,0.00,VWS V14.00,2013-02-03 02:21:00,
2013-02-03 04:23:00,56.8,52.3,29.77,SW,225,8.2,10.2,85,0.00,,,0.00,VWS V14.00,2013-02-03 02:23:00,
2013-02-03 04:26:00,56.8,52.3,29.77,SSE,158,10.5,13.8,85,0.00,,,0.00,VWS V14.00,2013-02-03 02:26:00,
2013-02-03 04:28:00,56.8,52.3,29.77,WSW,248,7.1,13.8,85,0.00,,,0.00,VWS V14.00,2013-02-03 02:28:00,
2013-02-03 04:29:00,56.8,52.3,29.77,WSW,248,7.1,13.8,85,0.00,,,0.00,VWS V14.00,2013-02-03 02:29:00,
2013-02-03 04:31:00,56.8,52.3,29.78,South,180,6.0,7.1,85,0.00,,,0.00,VWS V14.00,2013-02-03 02:31:00,
2013-02-03 04:33:00,56.8,52.3,29.77,SE,135,11.8,11.8,85,0.00,,,0.00,VWS V14.00,2013-02-03 02:33:00,
2013-02-03 04:34:00,56.8,52.3,29.77,SE,135,11.8,11.8,85,0.00,,,0.00,VWS V14.00,2013-02-03 02:34:00,
2013-02-03 04:36:00,56.8,52.3,29.77,SSW,202,9.1,9.1,85,0.00,,,0.00,VWS V14.00,2013-02-03 02:36:00,
2013-02-03 04:38:00,56.8,52.3,29.77,SSW,202,11.4,11.4,85,0.00,,,0.00,VWS V14.00,2013-02-03 02:38:00,
2013-02-03 04:39:00,56.8,52.3,29.77,SSW,202,11.4,11.4,85,0.00,,,0.00,VWS V14.00,2013-02-03 02:39:00,
2013-02-03 04:41:00,56.8,52.3,29.77,SE,135,1.7,14.3,85,0.00,,,0.00,VWS V14.00,2013-02-03 02:41:00,
2013-02-03 04:42:00,56.8,52.3,29.77,SE,135,1.7,14.3,85,0.00,,,0.00,VWS V14.00,2013-02-03 02:42:00,
2013-02-03 04:43:00,56.8,52.3,29.77,SE,135,1.7,14.3,85,0.00,,,0.00,VWS V14.00,2013-02-03 02:43:00,
2013-02-03 04:44:00,56.8,52.3,29.77,SE,135,1.7,14.3,85,0.00,,,0.00,VWS V14.00,2013-02-03 02:44:00,
2013-02-03 04:46:00,56.8,52.3,29.77,SSE,158,8.9,8.9,85,0.00,,,0.00,VWS V14.00,2013-02-03 02:46:00,
2013-02-03 04:47:00,56.8,52.3,29.77,SSE,158,8.9,8.9,85,0.00,,,0.00,VWS V14.00,2013-02-03 02:47:00,
2013-02-03 04:48:00,56.8,52.3,29.77,WSW,248,6.0,8.9,85,0.00,,,0.00,VWS V14.00,2013-02-03 02:48:00,
2013-02-03 04:49:00,56.8,52.3,29.77,WSW,248,6.0,8.9,85,0.00,,,0.00,VWS V14.00,2013-02-03 02:49:00,
2013-02-03 04:51:00,56.8,52.7,29.78,SSE,158,6.2,6.2,86,0.00,,,0.00,VWS V14.00,2013-02-03 02:51:00,
2013-02-03 04:52:00,56.8,52.3,29.77,SSE,158,7.8,7.8,85,0.00,,,0.00,VWS V14.00,2013-02-03 02:52:00,
2013-02-03 04:53:00,56.8,52.3,29.77,SSE,158,7.8,7.8,85,0.00,,,0.00,VWS V14.00,2013-02-03 02:53:00,
2013-02-03 04:54:00,56.8,52.3,29.78,SSW,202,12.5,12.5,85,0.00,,,0.00,VWS V14.00,2013-02-03 02:54:00,
2013-02-03 04:56:00,56.8,52.3,29.77,South,180,0.0,12.5,85,0.00,,,0.00,VWS V14.00,2013-02-03 02:56:00,
2013-02-03 04:57:00,56.8,52.3,29.78,South,180,0.0,12.5,85,0.00,,,0.00,VWS V14.00,2013-02-03 02:57:00,
2013-02-03 04:58:00,56.8,52.3,29.77,SSE,158,5.8,12.5,85,0.00,,,0.00,VWS V14.00,2013-02-03 02:58:00,
2013-02-03 04:59:00,56.8,52.3,29.77,SSE,158,5.8,12.5,85,0.00,,,0.00,VWS V14.00,2013-02-03 02:59:00,
2013-02-03 05:01:00,56.8,52.3,29.77,SSW,202,7.8,7.8,85,0.00,,,0.00,VWS V14.00,2013-02-03 03:01:00,
2013-02-03 05:02:00,56.8,52.3,29.78,SSW,202,7.8,7.8,85,0.00,,,0.00,VWS V14.00,2013-02-03 03:02:00,
2013-02-03 05:03:00,56.8,52.3,29.77,SSW,202,10.0,10.0,85,0.00,,,0.00,VWS V14.00,2013-02-03 03:03:00,
2013-02-03 05:04:00,56.8,52.3,29.78,SSW,202,10.0,10.0,85,0.00,,,0.00,VWS V14.00,2013-02-03 03:04:00,
2013-02-03 05:06:00,56.8,52.7,29.78,SSW,202,5.5,5.5,86,0.00,,,0.00,VWS V14.00,2013-02-03 03:06:00,
2013-02-03 05:07:00,56.8,52.3,29.78,SSW,202,8.9,8.9,85,0.00,,,0.00,VWS V14.00,2013-02-03 03:07:00,
2013-02-03 05:08:00,56.8,52.3,29.78,SSW,202,8.9,8.9,85,0.00,,,0.00,VWS V14.00,2013-02-03 03:08:00,
2013-02-03 05:09:00,56.8,52.3,29.78,ENE,68,8.9,8.9,85,0.00,,,0.00,VWS V14.00,2013-02-03 03:09:00,
2013-02-03 05:11:00,56.8,52.3,29.78,SW,225,6.7,8.9,85,0.00,,,0.00,VWS V14.00,2013-02-03 03:11:00,
2013-02-03 05:12:00,56.8,52.7,29.78,SW,225,6.7,8.9,86,0.00,,,0.00,VWS V14.00,2013-02-03 03:12:00,
2013-02-03 05:13:00,56.8,52.7,29.78,SSW,202,17.8,17.8,86,0.00,,,0.00,VWS V14.00,2013-02-03 03:13:00,
2013-02-03 05:14:00,56.8,52.7,29.78,SSW,202,17.8,17.8,86,0.00,,,0.00,VWS V14.00,2013-02-03 03:14:00,
2013-02-03 05:16:00,56.8,52.7,29.78,SW,225,10.7,17.8,86,0.00,,,0.00,VWS V14.00,2013-02-03 03:16:00,
2013-02-03 05:17:00,56.8,52.7,29.78,SW,225,10.7,17.8,86,0.00,,,0.00,VWS V14.00,2013-02-03 03:17:00,
2013-02-03 05:18:00,56.8,52.7,29.78,SW,225,8.7,17.8,86,0.00,,,0.00,VWS V14.00,2013-02-03 03:18:00,
2013-02-03 05:19:00,56.8,52.7,29.78,SW,225,8.7,17.8,86,0.00,,,0.00,VWS V14.00,2013-02-03 03:19:00,
2013-02-03 05:21:00,56.8,52.7,29.78,SW,225,5.1,5.1,86,0.00,,,0.00,VWS V14.00,2013-02-03 03:21:00,
2013-02-03 05:22:00,56.8,52.7,29.78,SW,225,10.7,10.7,86,0.00,,,0.00,VWS V14.00,2013-02-03 03:22:00,
2013-02-03 05:23:00,56.8,52.7,29.78,SW,225,10.7,10.7,86,0.00,,,0.00,VWS V14.00,2013-02-03 03:23:00,
2013-02-03 05:24:00,56.8,52.7,29.78,SW,225,10.2,10.7,86,0.00,,,0.00,VWS V14.00,2013-02-03 03:24:00,
2013-02-03 05:26:00,56.8,52.7,29.78,SSE,158,6.2,10.2,86,0.00,,,0.00,VWS V14.00,2013-02-03 03:26:00,
2013-02-03 05:27:00,56.8,52.7,29.78,SSE,158,6.2,10.2,86,0.00,,,0.00,VWS V14.00,2013-02-03 03:27:00,
2013-02-03 05:28:00,56.8,52.7,29.78,SW,225,4.6,10.2,86,0.00,,,0.00,VWS V14.00,2013-02-03 03:28:00,
2013-02-03 05:29:00,56.8,52.7,29.78,SW,225,4.6,10.2,86,0.00,,,0.00,VWS V14.00,2013-02-03 03:29:00,
2013-02-03 05:31:00,56.8,52.7,29.78,ESE,112,12.3,12.3,86,0.00,,,0.00,VWS V14.00,2013-02-03 03:31:00,
2013-02-03 05:32:00,56.8,52.7,29.78,ESE,112,12.3,12.3,86,0.00,,,0.00,VWS V14.00,2013-02-03 03:32:00,
2013-02-03 05:33:00,56.8,52.7,29.78,WSW,248,8.9,12.3,86,0.00,,,0.00,VWS V14.00,2013-02-03 03:33:00,
2013-02-03 05:34:00,56.8,52.7,29.79,WSW,248,8.9,12.3,86,0.00,,,0.00,VWS V14.00,2013-02-03 03:34:00,
2013-02-03 05:36:00,56.8,52.7,29.78,SSW,202,7.1,7.1,86,0.00,,,0.00,VWS V14.00,2013-02-03 03:36:00,
2013-02-03 05:37:00,56.8,52.7,29.78,SW,225,7.3,7.3,86,0.00,,,0.00,VWS V14.00,2013-02-03 03:37:00,
2013-02-03 05:38:00,56.8,52.7,29.78,SW,225,7.3,7.3,86,0.00,,,0.00,VWS V14.00,2013-02-03 03:38:00,
2013-02-03 05:39:00,56.8,52.7,29.78,SSW,202,12.9,12.9,86,0.00,,,0.00,VWS V14.00,2013-02-03 03:39:00,
2013-02-03 05:41:00,56.8,52.7,29.78,SE,135,11.8,12.9,86,0.00,,,0.00,VWS V14.00,2013-02-03 03:41:00,
2013-02-03 05:42:00,56.8,52.7,29.78,SE,135,11.8,12.9,86,0.00,,,0.00,VWS V14.00,2013-02-03 03:42:00,
2013-02-03 05:43:00,56.8,52.7,29.78,SSE,158,3.8,12.9,86,0.00,,,0.00,VWS V14.00,2013-02-03 03:43:00,
2013-02-03 05:44:00,56.8,52.7,29.78,SSE,158,3.8,12.9,86,0.00,,,0.00,VWS V14.00,2013-02-03 03:44:00,
2013-02-03 05:46:00,56.8,52.7,29.78,ESE,112,2.2,3.8,86,0.00,,,0.00,VWS V14.00,2013-02-03 03:46:00,
2013-02-03 05:47:00,56.8,52.7,29.78,ESE,112,2.2,3.8,86,0.00,,,0.00,VWS V14.00,2013-02-03 03:47:00,
2013-02-03 05:49:00,56.8,52.7,29.78,SW,225,14.0,14.0,86,0.00,,,0.00,VWS V14.00,2013-02-03 03:49:00,
2013-02-03 05:51:00,56.8,52.7,29.78,WSW,248,8.0,8.0,86,0.00,,,0.00,VWS V14.00,2013-02-03 03:51:00,
2013-02-03 05:53:00,56.8,52.7,29.79,South,180,6.4,8.0,86,0.00,,,0.00,VWS V14.00,2013-02-03 03:53:00,
2013-02-03 05:54:00,56.8,52.7,29.79,South,180,6.4,8.0,86,0.00,,,0.00,VWS V14.00,2013-02-03 03:54:00,
2013-02-03 05:57:00,56.8,52.7,29.79,SW,225,4.9,9.6,86,0.00,,,0.00,VWS V14.00,2013-02-03 03:57:00,
2013-02-03 05:58:00,56.8,52.7,29.78,SSW,202,14.0,14.0,86,0.00,,,0.00,VWS V14.00,2013-02-03 03:58:00,
2013-02-03 05:59:00,56.8,52.7,29.79,SSW,202,14.0,14.0,86,0.00,,,0.00,VWS V14.00,2013-02-03 03:59:00,
2013-02-03 06:00:00,56.8,52.7,29.79,SSW,202,14.0,14.0,86,0.00,,,0.00,VWS V14.00,2013-02-03 04:00:00,
2013-02-03 06:02:00,56.8,52.7,29.79,SSW,202,7.1,14.0,86,0.00,,,0.00,VWS V14.00,2013-02-03 04:02:00,
2013-02-03 06:03:00,56.8,52.7,29.79,SSW,202,2.0,14.0,86,0.00,,,0.00,VWS V14.00,2013-02-03 04:03:00,
2013-02-03 06:04:00,56.8,52.7,29.79,SSW,202,2.0,14.0,86,0.00,,,0.00,VWS V14.00,2013-02-03 04:04:00,
2013-02-03 06:05:00,56.8,52.7,29.79,ENE,68,2.9,14.0,86,0.00,,,0.00,VWS V14.00,2013-02-03 04:05:00,
2013-02-03 06:07:00,56.8,52.7,29.79,East,90,4.2,4.2,86,0.00,,,0.00,VWS V14.00,2013-02-03 04:07:00,
2013-02-03 06:08:00,56.8,52.7,29.79,East,90,4.2,4.2,86,0.00,,,0.00,VWS V14.00,2013-02-03 04:08:00,
2013-02-03 06:09:00,56.6,52.5,29.79,South,180,8.2,8.2,86,0.00,,,0.00,VWS V14.00,2013-02-03 04:09:00,
2013-02-03 06:10:00,56.6,52.5,29.79,South,180,8.2,8.2,86,0.00,,,0.00,VWS V14.00,2013-02-03 04:10:00,
2013-02-03 06:12:00,56.8,52.7,29.79,SSW,202,14.5,14.5,86,0.00,,,0.00,VWS V14.00,2013-02-03 04:12:00,
2013-02-03 06:13:00,56.8,52.7,29.79,South,180,14.5,14.5,86,0.00,,,0.00,VWS V14.00,2013-02-03 04:13:00,
2013-02-03 06:14:00,56.8,52.7,29.79,South,180,14.5,14.5,86,0.00,,,0.00,VWS V14.00,2013-02-03 04:14:00,
2013-02-03 06:15:00,56.8,52.7,29.79,South,180,14.5,14.5,86,0.00,,,0.00,VWS V14.00,2013-02-03 04:15:00,
2013-02-03 06:17:00,56.8,52.7,29.79,SSE,158,9.6,14.5,86,0.00,,,0.00,VWS V14.00,2013-02-03 04:17:00,
2013-02-03 06:18:00,56.6,52.5,29.79,South,180,10.2,14.5,86,0.00,,,0.00,VWS V14.00,2013-02-03 04:18:00,
2013-02-03 06:19:00,56.6,52.5,29.79,South,180,10.2,14.5,86,0.00,,,0.00,VWS V14.00,2013-02-03 04:19:00,
2013-02-03 06:20:00,56.6,52.5,29.79,South,180,5.8,5.8,86,0.00,,,0.00,VWS V14.00,2013-02-03 04:20:00,
2013-02-03 06:22:00,56.4,52.3,29.79,South,180,2.0,5.8,86,0.00,,,0.00,VWS V14.00,2013-02-03 04:22:00,
2013-02-03 06:23:00,56.4,52.3,29.79,South,180,2.0,5.8,86,0.00,,,0.00,VWS V14.00,2013-02-03 04:23:00,
2013-02-03 06:24:00,56.4,52.3,29.79,ESE,112,5.8,5.8,86,0.00,,,0.00,VWS V14.00,2013-02-03 04:24:00,
2013-02-03 06:25:00,56.4,52.3,29.79,ESE,112,5.8,5.8,86,0.00,,,0.00,VWS V14.00,2013-02-03 04:25:00,
2013-02-03 06:27:00,56.4,52.3,29.79,SE,135,11.4,11.4,86,0.00,,,0.00,VWS V14.00,2013-02-03 04:27:00,
2013-02-03 06:28:00,56.4,52.3,29.79,SSW,202,7.3,11.4,86,0.00,,,0.00,VWS V14.00,2013-02-03 04:28:00,
2013-02-03 06:29:00,56.4,52.3,29.79,SSW,202,7.3,11.4,86,0.00,,,0.00,VWS V14.00,2013-02-03 04:29:00,
2013-02-03 06:30:00,56.4,52.3,29.79,SSW,202,7.3,7.3,86,0.00,,,0.00,VWS V14.00,2013-02-03 04:30:00,
2013-02-03 06:32:00,56.4,52.3,29.79,SE,135,5.8,7.3,86,0.00,,,0.00,VWS V14.00,2013-02-03 04:32:00,
2013-02-03 06:33:00,56.4,52.3,29.79,SW,225,10.5,10.5,86,0.00,,,0.00,VWS V14.00,2013-02-03 04:33:00,
2013-02-03 06:34:00,56.4,52.3,29.79,SW,225,10.5,10.5,86,0.00,,,0.00,VWS V14.00,2013-02-03 04:34:00,
2013-02-03 06:35:00,56.4,52.3,29.79,WSW,248,3.5,3.5,86,0.00,,,0.00,VWS V14.00,2013-02-03 04:35:00,
2013-02-03 06:37:00,56.4,52.3,29.79,South,180,4.9,4.9,86,0.00,,,0.00,VWS V14.00,2013-02-03 04:37:00,
2013-02-03 06:38:00,56.4,52.3,29.79,South,180,4.9,4.9,86,0.00,,,0.00,VWS V14.00,2013-02-03 04:38:00,
2013-02-03 06:39:00,56.4,52.3,29.79,SSE,158,3.8,4.9,86,0.00,,,0.00,VWS V14.00,2013-02-03 04:39:00,
2013-02-03 06:40:00,56.4,52.3,29.78,SSE,158,3.8,3.8,86,0.00,,,0.00,VWS V14.00,2013-02-03 04:40:00,
2013-02-03 06:42:00,56.4,52.3,29.78,SSE,158,6.4,6.4,86,0.00,,,0.00,VWS V14.00,2013-02-03 04:42:00,
2013-02-03 06:43:00,56.4,52.3,29.79,SSW,202,6.2,6.4,86,0.00,,,0.00,VWS V14.00,2013-02-03 04:43:00,
2013-02-03 06:44:00,56.4,52.3,29.78,SSW,202,6.2,6.4,86,0.00,,,0.00,VWS V14.00,2013-02-03 04:44:00,
2013-02-03 06:45:00,56.4,52.3,29.79,SSW,202,6.2,6.2,86,0.00,,,0.00,VWS V14.00,2013-02-03 04:45:00,
2013-02-03 06:47:00,56.4,52.3,29.79,WSW,248,3.3,6.2,86,0.00,,,0.00,VWS V14.00,2013-02-03 04:47:00,
2013-02-03 06:48:00,56.4,52.3,29.79,SSW,202,5.5,6.2,86,0.00,,,0.00,VWS V14.00,2013-02-03 04:48:00,
2013-02-03 06:49:00,56.4,52.3,29.79,SSW,202,5.5,6.2,86,0.00,,,0.00,VWS V14.00,2013-02-03 04:49:00,
2013-02-03 06:50:00,56.4,52.3,29.79,SSE,158,2.0,2.0,86,0.00,,,0.00,VWS V14.00,2013-02-03 04:50:00,
2013-02-03 06:52:00,56.4,52.3,29.79,SSW,202,1.1,2.0,86,0.00,,,0.00,VWS V14.00,2013-02-03 04:52:00,
2013-02-03 06:53:00,56.4,52.3,29.79,SSW,202,1.1,2.0,86,0.00,,,0.00,VWS V14.00,2013-02-03 04:53:00,
2013-02-03 06:54:00,56.4,52.3,29.79,South,180,10.7,10.7,86,0.00,,,0.00,VWS V14.00,2013-02-03 04:54:00,
2013-02-03 06:55:00,56.4,52.3,29.79,South,180,10.7,10.7,86,0.00,,,0.00,VWS V14.00,2013-02-03 04:55:00,
2013-02-03 06:57:00,56.4,52.3,29.79,ESE,112,7.3,10.7,86,0.00,,,0.00,VWS V14.00,2013-02-03 04:57:00,
2013-02-03 06:58:00,56.4,52.3,29.79,SSW,202,2.9,10.7,86,0.00,,,0.00,VWS V14.00,2013-02-03 04:58:00,
2013-02-03 06:59:00,56.4,52.3,29.79,SSW,202,2.9,10.7,86,0.00,,,0.00,VWS V14.00,2013-02-03 04:59:00,
2013-02-03 07:00:00,56.4,52.3,29.79,SSW,202,2.9,2.9,86,0.00,,,0.00,VWS V14.00,2013-02-03 05:00:00,
2013-02-03 07:02:00,56.4,52.3,29.79,SSW,202,0.0,2.9,86,0.00,,,0.00,VWS V14.00,2013-02-03 05:02:00,
2013-02-03 07:05:00,56.4,52.3,29.79,SW,225,6.2,6.2,86,0.00,,,0.00,VWS V14.00,2013-02-03 05:05:00,
2013-02-03 07:07:00,56.4,52.3,29.80,SW,225,14.0,14.0,86,0.00,,,0.00,VWS V14.00,2013-02-03 05:07:00,
2013-02-03 07:10:00,56.4,52.3,29.80,South,180,8.0,8.0,86,0.00,,,0.00,VWS V14.00,2013-02-03 05:10:00,
2013-02-03 07:12:00,56.4,52.3,29.80,South,180,7.3,8.0,86,0.00,,,0.00,VWS V14.00,2013-02-03 05:12:00,
2013-02-03 07:15:00,56.4,52.3,29.80,SSW,202,6.2,6.2,86,0.00,,,0.00,VWS V14.00,2013-02-03 05:15:00,
2013-02-03 07:17:00,56.4,52.3,29.80,SSW,202,6.2,6.2,86,0.00,,,0.00,VWS V14.00,2013-02-03 05:17:00,
2013-02-03 07:20:00,56.4,52.0,29.80,SSE,158,5.3,5.3,85,0.00,,,0.00,VWS V14.00,2013-02-03 05:20:00,
2013-02-03 07:22:00,56.4,52.0,29.80,NE,45,0.0,5.3,85,0.00,,,0.00,VWS V14.00,2013-02-03 05:22:00,
2013-02-03 07:25:00,56.4,52.0,29.80,SSE,158,5.1,5.1,85,0.00,,,0.00,VWS V14.00,2013-02-03 05:25:00,
2013-02-03 07:27:00,56.4,52.0,29.80,SSW,202,3.1,5.1,85,0.00,,,0.00,VWS V14.00,2013-02-03 05:27:00,
2013-02-03 07:30:00,56.4,52.0,29.81,SSW,202,7.3,7.3,85,0.00,,,0.00,VWS V14.00,2013-02-03 05:30:00,
2013-02-03 07:32:00,56.4,52.0,29.81,SSW,202,7.3,7.3,85,0.00,,,0.00,VWS V14.00,2013-02-03 05:32:00,
2013-02-03 07:35:00,56.6,52.2,29.80,SSE,158,4.4,4.4,85,0.00,,,0.00,VWS V14.00,2013-02-03 05:35:00,
2013-02-03 07:37:00,56.4,52.0,29.80,South,180,4.0,4.4,85,0.00,,,0.00,VWS V14.00,2013-02-03 05:37:00,
2013-02-03 07:40:00,56.4,52.0,29.81,SSW,202,5.1,5.1,85,0.00,,,0.00,VWS V14.00,2013-02-03 05:40:00,
2013-02-03 07:42:00,56.4,52.0,29.81,South,180,4.4,5.1,85,0.00,,,0.00,VWS V14.00,2013-02-03 05:42:00,
2013-02-03 07:45:00,56.4,52.0,29.81,SSW,202,3.5,3.5,85,0.00,,,0.00,VWS V14.00,2013-02-03 05:45:00,
2013-02-03 07:48:00,56.6,52.2,29.81,SW,225,5.3,5.3,85,0.00,,,0.00,VWS V14.00,2013-02-03 05:48:00,
2013-02-03 07:50:00,56.8,52.3,29.81,South,180,3.3,3.3,85,0.00,,,0.00,VWS V14.00,2013-02-03 05:50:00,
2013-02-03 07:51:00,56.8,52.3,29.81,South,180,3.3,3.3,85,0.00,,,0.00,VWS V14.00,2013-02-03 05:51:00,
2013-02-03 07:53:00,57.0,52.5,29.81,East,90,0.0,3.3,85,0.00,,,0.00,VWS V14.00,2013-02-03 05:53:00,
2013-02-03 07:55:00,56.8,52.3,29.81,NE,45,0.6,0.6,85,0.00,,,0.00,VWS V14.00,2013-02-03 05:55:00,
2013-02-03 07:56:00,56.8,52.3,29.81,NE,45,0.6,0.6,85,0.00,,,0.00,VWS V14.00,2013-02-03 05:56:00,
2013-02-03 07:58:00,57.0,52.5,29.81,SSE,158,1.7,1.7,85,0.00,,,0.00,VWS V14.00,2013-02-03 05:58:00,
2013-02-03 08:00:00,57.0,52.5,29.81,SSW,202,6.0,6.0,85,0.00,,,0.00,VWS V14.00,2013-02-03 06:00:00,
2013-02-03 08:01:00,57.0,52.5,29.81,SSW,202,6.0,6.0,85,0.00,,,0.00,VWS V14.00,2013-02-03 06:01:00,
2013-02-03 08:03:00,57.0,52.5,29.81,SSW,202,6.0,6.0,85,0.00,,,0.00,VWS V14.00,2013-02-03 06:03:00,
2013-02-03 08:05:00,57.0,52.5,29.82,ESE,112,2.0,2.0,85,0.00,,,0.00,VWS V14.00,2013-02-03 06:05:00,
2013-02-03 08:06:00,57.0,52.5,29.82,ESE,112,2.0,2.0,85,0.00,,,0.00,VWS V14.00,2013-02-03 06:06:00,
2013-02-03 08:08:00,57.2,52.7,29.82,SSW,202,1.5,2.0,85,0.00,,,0.00,VWS V14.00,2013-02-03 06:08:00,
2013-02-03 08:10:00,57.2,52.7,29.81,West,270,3.1,3.1,85,0.00,,,0.00,VWS V14.00,2013-02-03 06:10:00,
2013-02-03 08:11:00,57.2,52.7,29.81,West,270,3.1,3.1,85,0.00,,,0.00,VWS V14.00,2013-02-03 06:11:00,
2013-02-03 08:13:00,57.3,52.5,29.81,WSW,248,10.2,10.2,84,0.00,,,0.00,VWS V14.00,2013-02-03 06:13:00,
2013-02-03 08:15:00,57.3,52.5,29.81,WSW,248,10.2,10.2,84,0.00,,,0.00,VWS V14.00,2013-02-03 06:15:00,
2013-02-03 08:16:00,57.3,52.5,29.81,WSW,248,10.2,10.2,84,0.00,,,0.00,VWS V14.00,2013-02-03 06:16:00,
2013-02-03 08:18:00,57.3,52.5,29.81,SSE,158,7.8,10.2,84,0.00,,,0.00,VWS V14.00,2013-02-03 06:18:00,
2013-02-03 08:20:00,57.3,52.5,29.81,SW,225,9.1,9.1,84,0.00,,,0.00,VWS V14.00,2013-02-03 06:20:00,
2013-02-03 08:21:00,57.3,52.5,29.81,SW,225,9.1,9.1,84,0.00,,,0.00,VWS V14.00,2013-02-03 06:21:00,
2013-02-03 08:23:00,57.5,52.4,29.81,West,270,6.9,9.1,83,0.00,,,0.00,VWS V14.00,2013-02-03 06:23:00,
2013-02-03 08:26:00,57.5,52.4,29.81,SW,225,6.7,6.7,83,0.00,,,0.00,VWS V14.00,2013-02-03 06:26:00,
2013-02-03 08:28:00,57.7,52.6,29.81,SW,225,11.8,11.8,83,0.00,,,0.00,VWS V14.00,2013-02-03 06:28:00,
2013-02-03 08:31:00,57.7,52.6,29.81,SW,225,11.8,11.8,83,0.00,,,0.00,VWS V14.00,2013-02-03 06:31:00,
2013-02-03 08:33:00,57.7,52.6,29.80,SSW,202,6.2,11.8,83,0.00,,,0.00,VWS V14.00,2013-02-03 06:33:00,
2013-02-03 08:36:00,57.7,52.6,29.80,SSE,158,10.9,10.9,83,0.00,,,0.00,VWS V14.00,2013-02-03 06:36:00,
2013-02-03 08:38:00,57.7,52.6,29.80,SSW,202,5.5,10.9,83,0.00,,,0.00,VWS V14.00,2013-02-03 06:38:00,
2013-02-03 08:41:00,57.9,52.8,29.80,SSW,202,14.5,14.5,83,0.00,,,0.00,VWS V14.00,2013-02-03 06:41:00,
2013-02-03 08:43:00,57.9,52.8,29.80,WSW,248,6.2,14.5,83,0.00,,,0.00,VWS V14.00,2013-02-03 06:43:00,
2013-02-03 08:46:00,58.1,53.0,29.80,ESE,112,1.1,6.2,83,0.00,,,0.00,VWS V14.00,2013-02-03 06:46:00,
2013-02-03 08:48:00,58.2,53.1,29.80,SSW,202,13.1,13.1,83,0.00,,,0.00,VWS V14.00,2013-02-03 06:48:00,
2013-02-03 08:51:00,58.2,53.1,29.80,SSW,202,12.3,12.3,83,0.00,,,0.00,VWS V14.00,2013-02-03 06:51:00,
2013-02-03 08:53:00,58.4,52.9,29.80,SSE,158,4.4,12.3,82,0.00,,,0.00,VWS V14.00,2013-02-03 06:53:00,
2013-02-03 08:56:00,58.6,52.8,29.80,SE,135,5.3,7.3,81,0.00,,,0.00,VWS V14.00,2013-02-03 06:56:00,
2013-02-03 08:58:00,58.6,52.8,29.80,West,270,3.5,7.3,81,0.00,,,0.00,VWS V14.00,2013-02-03 06:58:00,
2013-02-03 09:01:00,58.8,52.7,29.80,SE,135,3.8,3.8,80,0.00,,,0.00,VWS V14.00,2013-02-03 07:01:00,
2013-02-03 09:03:00,59.0,52.8,29.80,SSW,202,6.0,6.0,80,0.00,,,0.00,VWS V14.00,2013-02-03 07:03:00,
2013-02-03 09:06:00,59.1,52.9,29.80,South,180,11.6,11.6,80,0.00,,,0.00,VWS V14.00,2013-02-03 07:06:00,
2013-02-03 09:08:00,59.1,52.6,29.81,SSW,202,2.9,11.6,79,0.00,,,0.00,VWS V14.00,2013-02-03 07:08:00,
2013-02-03 09:11:00,59.5,53.0,29.80,South,180,1.5,6.7,79,0.00,,,0.00,VWS V14.00,2013-02-03 07:11:00,
2013-02-03 09:13:00,59.7,52.8,29.80,South,180,1.5,6.7,78,0.00,,,0.00,VWS V14.00,2013-02-03 07:13:00,
2013-02-03 09:16:00,59.7,52.8,29.80,SW,225,9.8,9.8,78,0.00,,,0.00,VWS V14.00,2013-02-03 07:16:00,
2013-02-03 09:18:00,59.7,52.8,29.81,SSW,202,5.8,9.8,78,0.00,,,0.00,VWS V14.00,2013-02-03 07:18:00,
2013-02-03 09:21:00,59.9,52.7,29.81,SSW,202,2.0,2.0,77,0.00,,,0.00,VWS V14.00,2013-02-03 07:21:00,
2013-02-03 09:23:00,60.0,52.8,29.81,East,90,5.1,5.1,77,0.00,,,0.00,VWS V14.00,2013-02-03 07:23:00,
2013-02-03 09:26:00,60.0,52.4,29.81,SW,225,7.6,7.6,76,0.00,,,0.00,VWS V14.00,2013-02-03 07:26:00,
2013-02-03 09:27:00,60.0,52.4,29.81,SW,225,7.6,7.6,76,0.00,,,0.00,VWS V14.00,2013-02-03 07:27:00,
2013-02-03 09:28:00,60.0,52.4,29.81,SE,135,4.9,7.6,76,0.00,,,0.00,VWS V14.00,2013-02-03 07:28:00,
2013-02-03 09:31:00,60.4,52.8,29.81,SW,225,0.6,0.6,76,0.00,,,0.00,VWS V14.00,2013-02-03 07:31:00,
2013-02-03 09:32:00,60.4,52.8,29.81,SW,225,0.6,0.6,76,0.00,,,0.00,VWS V14.00,2013-02-03 07:32:00,
2013-02-03 09:33:00,60.4,52.8,29.81,SW,225,7.3,7.3,76,0.00,,,0.00,VWS V14.00,2013-02-03 07:33:00,
2013-02-03 09:37:00,60.4,52.8,29.81,SW,225,5.3,5.3,76,0.00,,,0.00,VWS V14.00,2013-02-03 07:37:00,
2013-02-03 09:38:00,60.6,53.0,29.80,SE,135,9.1,9.1,76,0.00,,,0.00,VWS V14.00,2013-02-03 07:38:00,
2013-02-03 09:42:00,60.6,52.6,29.81,SSE,158,3.8,10.5,75,0.00,,,0.00,VWS V14.00,2013-02-03 07:42:00,
2013-02-03 09:43:00,60.6,52.6,29.81,SSE,158,16.5,16.5,75,0.00,,,0.00,VWS V14.00,2013-02-03 07:43:00,
2013-02-03 09:47:00,60.6,52.3,29.80,South,180,10.7,16.5,74,0.00,,,0.00,VWS V14.00,2013-02-03 07:47:00,
2013-02-03 09:48:00,60.6,52.3,29.81,East,90,3.5,16.5,74,0.00,,,0.00,VWS V14.00,2013-02-03 07:48:00,
2013-02-03 09:52:00,60.9,52.2,29.80,South,180,13.1,13.1,73,0.00,,,0.00,VWS V14.00,2013-02-03 07:52:00,
2013-02-03 09:53:00,60.9,52.2,29.81,South,180,13.1,13.1,73,0.00,,,0.00,VWS V14.00,2013-02-03 07:53:00,
2013-02-03 09:57:00,60.9,52.2,29.80,SSE,158,6.2,8.9,73,0.00,,,0.00,VWS V14.00,2013-02-03 07:57:00,
2013-02-03 09:58:00,60.9,52.2,29.80,ESE,112,13.6,13.6,73,0.00,,,0.00,VWS V14.00,2013-02-03 07:58:00,
2013-02-03 10:02:00,61.1,52.0,29.80,SE,135,8.5,13.6,72,0.00,,,0.00,VWS V14.00,2013-02-03 08:02:00,
2013-02-03 10:03:00,61.3,52.2,29.80,SW,225,8.2,13.6,72,0.00,,,0.00,VWS V14.00,2013-02-03 08:03:00,
2013-02-03 10:07:00,61.3,51.8,29.79,SE,135,12.7,12.7,71,0.00,,,0.00,VWS V14.00,2013-02-03 08:07:00,
2013-02-03 10:09:00,61.3,51.8,29.80,SE,135,12.7,12.7,71,0.00,,,0.00,VWS V14.00,2013-02-03 08:09:00,
2013-02-03 10:12:00,61.3,51.8,29.80,South,180,15.6,15.6,71,0.00,,,0.00,VWS V14.00,2013-02-03 08:12:00,
2013-02-03 10:13:00,61.3,51.8,29.80,South,180,15.6,15.6,71,0.00,,,0.00,VWS V14.00,2013-02-03 08:13:00,
2013-02-03 10:14:00,61.3,51.8,29.79,SW,225,1.7,15.6,71,0.00,,,0.00,VWS V14.00,2013-02-03 08:14:00,
2013-02-03 10:17:00,61.5,52.0,29.79,SSE,158,13.8,13.8,71,0.00,,,0.00,VWS V14.00,2013-02-03 08:17:00,
2013-02-03 10:18:00,61.5,52.0,29.79,SSE,158,13.8,13.8,71,0.00,,,0.00,VWS V14.00,2013-02-03 08:18:00,
2013-02-03 10:19:00,61.5,52.0,29.80,SW,225,8.0,13.8,71,0.00,,,0.00,VWS V14.00,2013-02-03 08:19:00,
2013-02-03 10:22:00,61.8,52.3,29.80,SE,135,10.7,11.6,71,0.00,,,0.00,VWS V14.00,2013-02-03 08:22:00,
2013-02-03 10:23:00,61.8,52.3,29.80,SE,135,10.7,11.6,71,0.00,,,0.00,VWS V14.00,2013-02-03 08:23:00,
2013-02-03 10:24:00,61.8,52.3,29.80,SE,135,10.7,11.6,71,0.00,,,0.00,VWS V14.00,2013-02-03 08:24:00,
2013-02-03 10:27:00,61.8,51.9,29.80,SSW,202,2.2,7.8,70,0.00,,,0.00,VWS V14.00,2013-02-03 08:27:00,
2013-02-03 10:28:00,62.0,52.1,29.79,ESE,112,6.4,7.8,70,0.00,,,0.00,VWS V14.00,2013-02-03 08:28:00,
2013-02-03 10:29:00,62.0,52.1,29.79,ESE,112,6.4,7.8,70,0.00,,,0.00,VWS V14.00,2013-02-03 08:29:00,
2013-02-03 10:32:00,62.2,52.3,29.79,WNW,292,11.8,11.8,70,0.00,,,0.00,VWS V14.00,2013-02-03 08:32:00,
2013-02-03 10:33:00,62.2,52.3,29.79,WNW,292,11.8,11.8,70,0.00,,,0.00,VWS V14.00,2013-02-03 08:33:00,
2013-02-03 10:34:00,62.2,51.9,29.79,WSW,248,19.0,19.0,69,0.00,,,0.00,VWS V14.00,2013-02-03 08:34:00,
2013-02-03 10:37:00,62.4,51.7,29.79,SSW,202,11.4,11.4,68,0.00,,,0.00,VWS V14.00,2013-02-03 08:37:00,
2013-02-03 10:38:00,62.4,51.7,29.79,SSW,202,11.4,11.4,68,0.00,,,0.00,VWS V14.00,2013-02-03 08:38:00,
2013-02-03 10:39:00,62.4,51.7,29.79,SSW,202,9.1,11.4,68,0.00,,,0.00,VWS V14.00,2013-02-03 08:39:00,
2013-02-03 10:42:00,62.4,51.7,29.79,SW,225,4.4,9.1,68,0.00,,,0.00,VWS V14.00,2013-02-03 08:42:00,
2013-02-03 10:43:00,62.6,51.9,29.79,SSW,202,4.0,9.1,68,0.00,,,0.00,VWS V14.00,2013-02-03 08:43:00,
2013-02-03 10:44:00,62.6,51.9,29.79,SSW,202,4.0,9.1,68,0.00,,,0.00,VWS V14.00,2013-02-03 08:44:00,
2013-02-03 10:47:00,62.6,51.9,29.79,SSW,202,19.6,19.6,68,0.00,,,0.00,VWS V14.00,2013-02-03 08:47:00,
2013-02-03 10:48:00,62.6,51.5,29.79,SSW,202,9.6,19.6,67,0.00,,,0.00,VWS V14.00,2013-02-03 08:48:00,
2013-02-03 10:49:00,62.6,51.5,29.79,SSW,202,9.6,19.6,67,0.00,,,0.00,VWS V14.00,2013-02-03 08:49:00,
2013-02-03 10:52:00,62.7,51.6,29.79,WSW,248,3.5,4.6,67,0.00,,,0.00,VWS V14.00,2013-02-03 08:52:00,
2013-02-03 10:53:00,62.7,51.6,29.79,WSW,248,3.5,4.6,67,0.00,,,0.00,VWS V14.00,2013-02-03 08:53:00,
2013-02-03 10:54:00,62.7,51.6,29.79,SE,135,4.0,4.6,67,0.00,,,0.00,VWS V14.00,2013-02-03 08:54:00,
2013-02-03 10:57:00,62.7,51.6,29.79,SSW,202,8.2,8.2,67,0.00,,,0.00,VWS V14.00,2013-02-03 08:57:00,
2013-02-03 10:58:00,62.7,51.2,29.79,South,180,11.6,11.6,66,0.00,,,0.00,VWS V14.00,2013-02-03 08:58:00,
2013-02-03 10:59:00,62.7,51.2,29.79,South,180,11.6,11.6,66,0.00,,,0.00,VWS V14.00,2013-02-03 08:59:00,
2013-02-03 11:02:00,62.7,51.2,29.79,SSW,202,13.4,13.4,66,0.00,,,0.00,VWS V14.00,2013-02-03 09:02:00,
2013-02-03 11:03:00,62.9,51.4,29.79,SW,225,16.3,16.3,66,0.00,,,0.00,VWS V14.00,2013-02-03 09:03:00,
2013-02-03 11:04:00,62.9,51.4,29.79,SW,225,16.3,16.3,66,0.00,,,0.00,VWS V14.00,2013-02-03 09:04:00,
2013-02-03 11:07:00,62.9,51.0,29.79,SE,135,4.2,19.4,65,0.00,,,0.00,VWS V14.00,2013-02-03 09:07:00,
2013-02-03 11:08:00,62.9,51.0,29.79,SE,135,4.2,19.4,65,0.00,,,0.00,VWS V14.00,2013-02-03 09:08:00,
2013-02-03 11:09:00,62.9,51.0,29.79,North,0,11.1,19.4,65,0.00,,,0.00,VWS V14.00,2013-02-03 09:09:00,
2013-02-03 11:12:00,63.1,51.2,29.79,ESE,112,5.3,11.1,65,0.00,,,0.00,VWS V14.00,2013-02-03 09:12:00,
2013-02-03 11:13:00,63.1,50.7,29.79,SSW,202,10.0,11.1,64,0.00,,,0.00,VWS V14.00,2013-02-03 09:13:00,
2013-02-03 11:14:00,63.1,50.7,29.79,SSW,202,10.0,11.1,64,0.00,,,0.00,VWS V14.00,2013-02-03 09:14:00,
2013-02-03 11:18:00,63.1,50.7,29.79,ESE,112,6.2,6.2,64,0.00,,,0.00,VWS V14.00,2013-02-03 09:18:00,
2013-02-03 11:19:00,63.3,50.9,29.79,SW,225,21.0,21.0,64,0.00,,,0.00,VWS V14.00,2013-02-03 09:19:00,
2013-02-03 11:23:00,63.3,50.9,29.79,SSW,202,7.3,10.9,64,0.00,,,0.00,VWS V14.00,2013-02-03 09:23:00,
2013-02-03 11:24:00,63.3,50.9,29.79,South,180,8.9,10.9,64,0.00,,,0.00,VWS V14.00,2013-02-03 09:24:00,
2013-02-03 11:28:00,63.3,50.9,29.79,ESE,112,8.7,8.9,64,0.00,,,0.00,VWS V14.00,2013-02-03 09:28:00,
2013-02-03 11:29:00,63.5,51.1,29.79,SSW,202,5.1,8.9,64,0.00,,,0.00,VWS V14.00,2013-02-03 09:29:00,
2013-02-03 11:33:00,63.5,51.1,29.79,SW,225,7.1,7.1,64,0.00,,,0.00,VWS V14.00,2013-02-03 09:33:00,
2013-02-03 11:34:00,63.6,51.2,29.78,SW,225,5.5,7.1,64,0.00,,,0.00,VWS V14.00,2013-02-03 09:34:00,
2013-02-03 11:35:00,63.6,51.2,29.79,South,180,9.1,9.1,64,0.00,,,0.00,VWS V14.00,2013-02-03 09:35:00,
2013-02-03 11:38:00,63.6,50.8,29.79,SW,225,11.4,11.4,63,0.00,,,0.00,VWS V14.00,2013-02-03 09:38:00,
2013-02-03 11:39:00,63.6,50.8,29.79,SW,225,11.4,11.4,63,0.00,,,0.00,VWS V14.00,2013-02-03 09:39:00,
2013-02-03 11:40:00,63.6,50.8,29.78,SE,135,10.9,10.9,63,0.00,,,0.00,VWS V14.00,2013-02-03 09:40:00,
2013-02-03 11:43:00,63.6,50.8,29.78,SSE,158,4.9,10.9,63,0.00,,,0.00,VWS V14.00,2013-02-03 09:43:00,
2013-02-03 11:44:00,63.5,50.7,29.78,SSE,158,4.9,10.9,63,0.00,,,0.00,VWS V14.00,2013-02-03 09:44:00,
2013-02-03 11:45:00,63.5,50.7,29.78,South,180,7.1,7.1,63,0.00,,,0.00,VWS V14.00,2013-02-03 09:45:00,
2013-02-03 11:48:00,63.3,50.9,29.78,WSW,248,21.0,21.0,64,0.00,,,0.00,VWS V14.00,2013-02-03 09:48:00,
2013-02-03 11:49:00,63.3,50.9,29.78,WSW,248,21.0,21.0,64,0.00,,,0.00,VWS V14.00,2013-02-03 09:49:00,
2013-02-03 11:50:00,63.3,50.9,29.78,SSE,158,9.8,9.8,64,0.00,,,0.00,VWS V14.00,2013-02-03 09:50:00,
2013-02-03 11:53:00,63.3,50.9,29.78,SW,225,16.3,16.3,64,0.00,,,0.00,VWS V14.00,2013-02-03 09:53:00,
2013-02-03 11:54:00,63.1,50.7,29.78,SSW,202,15.6,16.3,64,0.00,,,0.00,VWS V14.00,2013-02-03 09:54:00,
2013-02-03 11:55:00,63.1,50.7,29.78,SSW,202,15.6,15.6,64,0.00,,,0.00,VWS V14.00,2013-02-03 09:55:00,
2013-02-03 11:58:00,63.3,50.9,29.78,SSW,202,14.5,15.6,64,0.00,,,0.00,VWS V14.00,2013-02-03 09:58:00,
2013-02-03 11:59:00,63.3,50.9,29.78,SSW,202,14.5,15.6,64,0.00,,,0.00,VWS V14.00,2013-02-03 09:59:00,
2013-02-03 12:00:00,63.3,50.9,29.78,SSW,202,6.0,6.0,64,0.00,,,0.00,VWS V14.00,2013-02-03 10:00:00,
2013-02-03 12:03:00,63.5,51.1,29.78,South,180,14.7,14.7,64,0.00,,,0.00,VWS V14.00,2013-02-03 10:03:00,
2013-02-03 12:04:00,63.5,51.1,29.78,South,180,14.7,14.7,64,0.00,,,0.00,VWS V14.00,2013-02-03 10:04:00,
2013-02-03 12:05:00,63.5,50.7,29.78,East,90,7.3,7.3,63,0.00,,,0.00,VWS V14.00,2013-02-03 10:05:00,
2013-02-03 12:08:00,63.6,50.8,29.78,SSE,158,7.3,7.3,63,0.00,,,0.00,VWS V14.00,2013-02-03 10:08:00,
2013-02-03 12:09:00,63.5,50.7,29.77,WSW,248,5.1,7.3,63,0.00,,,0.00,VWS V14.00,2013-02-03 10:09:00,
2013-02-03 12:10:00,63.5,50.7,29.77,WSW,248,5.1,7.3,63,0.00,,,0.00,VWS V14.00,2013-02-03 10:10:00,
2013-02-03 12:13:00,63.6,50.8,29.78,SSW,202,24.1,24.1,63,0.00,,,0.00,VWS V14.00,2013-02-03 10:13:00,
2013-02-03 12:15:00,63.6,50.8,29.78,South,180,3.8,24.1,63,0.00,,,0.00,VWS V14.00,2013-02-03 10:15:00,
2013-02-03 12:18:00,63.6,50.8,29.77,SSW,202,3.5,21.6,63,0.00,,,0.00,VWS V14.00,2013-02-03 10:18:00,
2013-02-03 12:20:00,63.6,50.8,29.77,SSW,202,3.5,21.6,63,0.00,,,0.00,VWS V14.00,2013-02-03 10:20:00,
2013-02-03 12:23:00,63.6,50.8,29.77,SE,135,16.1,16.1,63,0.00,,,0.00,VWS V14.00,2013-02-03 10:23:00,
2013-02-03 12:25:00,63.6,50.8,29.78,SE,135,16.1,16.1,63,0.00,,,0.00,VWS V14.00,2013-02-03 10:25:00,
2013-02-03 12:28:00,64.0,50.7,29.78,SE,135,18.3,18.3,62,0.00,,,0.00,VWS V14.00,2013-02-03 10:28:00,
2013-02-03 12:30:00,64.0,50.7,29.77,ENE,68,4.0,18.3,62,0.00,,,0.00,VWS V14.00,2013-02-03 10:30:00,
2013-02-03 12:33:00,64.0,50.7,29.77,SE,135,11.4,11.4,62,0.00,,,0.00,VWS V14.00,2013-02-03 10:33:00,
2013-02-03 12:35:00,64.0,50.7,29.77,East,90,18.3,18.3,62,0.00,,,0.00,VWS V14.00,2013-02-03 10:35:00,
2013-02-03 12:38:00,64.0,51.2,29.77,SSW,202,20.5,20.5,63,0.00,,,0.00,VWS V14.00,2013-02-03 10:38:00,
2013-02-03 12:40:00,64.0,51.2,29.78,East,90,12.9,12.9,63,0.00,,,0.00,VWS V14.00,2013-02-03 10:40:00,
2013-02-03 12:43:00,64.0,51.2,29.77,ESE,112,14.3,14.3,63,0.00,,,0.00,VWS V14.00,2013-02-03 10:43:00,
2013-02-03 12:45:00,64.0,51.2,29.77,East,90,3.5,3.5,63,0.00,,,0.00,VWS V14.00,2013-02-03 10:45:00,
2013-02-03 12:48:00,64.0,51.2,29.77,East,90,5.8,5.8,63,0.00,,,0.00,VWS V14.00,2013-02-03 10:48:00,
2013-02-03 12:50:00,64.0,51.2,29.77,SSE,158,6.0,6.0,63,0.00,,,0.00,VWS V14.00,2013-02-03 10:50:00,
2013-02-03 12:53:00,64.2,51.4,29.77,SW,225,10.2,10.2,63,0.00,,,0.00,VWS V14.00,2013-02-03 10:53:00,
2013-02-03 12:55:00,64.2,51.4,29.77,ESE,112,6.4,6.4,63,0.00,,,0.00,VWS V14.00,2013-02-03 10:55:00,
2013-02-03 12:58:00,64.0,51.2,29.77,SW,225,5.1,17.2,63,0.00,,,0.00,VWS V14.00,2013-02-03 10:58:00,
2013-02-03 13:00:00,64.0,51.2,29.77,WSW,248,13.1,13.1,63,0.00,,,0.00,VWS V14.00,2013-02-03 11:00:00,
2013-02-03 13:03:00,64.0,51.6,29.77,South,180,17.4,17.4,64,0.00,,,0.00,VWS V14.00,2013-02-03 11:03:00,
2013-02-03 13:05:00,64.0,51.6,29.77,SE,135,4.2,4.2,64,0.00,,,0.00,VWS V14.00,2013-02-03 11:05:00,
2013-02-03 13:09:00,64.0,51.6,29.77,SW,225,15.8,15.8,64,0.00,,,0.00,VWS V14.00,2013-02-03 11:09:00,
2013-02-03 13:10:00,64.2,51.8,29.77,SW,225,15.8,15.8,64,0.00,,,0.00,VWS V14.00,2013-02-03 11:10:00,
2013-02-03 13:14:00,64.2,51.8,29.77,South,180,22.1,22.1,64,0.00,,,0.00,VWS V14.00,2013-02-03 11:14:00,
2013-02-03 13:15:00,64.0,51.6,29.77,SE,135,5.1,5.1,64,0.00,,,0.00,VWS V14.00,2013-02-03 11:15:00,
2013-02-03 13:19:00,64.0,51.6,29.77,SSE,158,7.6,7.6,64,0.00,,,0.00,VWS V14.00,2013-02-03 11:19:00,
2013-02-03 13:20:00,64.0,51.6,29.77,SSE,158,4.4,4.4,64,0.00,,,0.00,VWS V14.00,2013-02-03 11:20:00,
2013-02-03 13:21:00,64.0,51.6,29.77,WSW,248,12.3,12.3,64,0.00,,,0.00,VWS V14.00,2013-02-03 11:21:00,
2013-02-03 13:24:00,64.0,51.6,29.77,WSW,248,12.3,12.3,64,0.00,,,0.00,VWS V14.00,2013-02-03 11:24:00,
2013-02-03 13:25:00,64.0,51.6,29.77,SE,135,7.6,7.6,64,0.00,,,0.00,VWS V14.00,2013-02-03 11:25:00,
2013-02-03 13:26:00,64.0,51.6,29.77,ESE,112,8.5,8.5,64,0.00,,,0.00,VWS V14.00,2013-02-03 11:26:00,
2013-02-03 13:29:00,64.0,51.6,29.77,SSW,202,19.0,19.0,64,0.00,,,0.00,VWS V14.00,2013-02-03 11:29:00,
2013-02-03 13:30:00,64.0,51.6,29.77,ESE,112,6.9,6.9,64,0.00,,,0.00,VWS V14.00,2013-02-03 11:30:00,
2013-02-03 13:31:00,64.0,51.6,29.77,ESE,112,6.9,6.9,64,0.00,,,0.00,VWS V14.00,2013-02-03 11:31:00,
2013-02-03 13:34:00,63.8,51.8,29.77,SSE,158,11.6,11.6,65,0.00,,,0.00,VWS V14.00,2013-02-03 11:34:00,
2013-02-03 13:35:00,63.8,51.8,29.77,West,270,6.7,6.7,65,0.00,,,0.00,VWS V14.00,2013-02-03 11:35:00,
2013-02-03 13:36:00,63.8,51.8,29.77,West,270,6.7,6.7,65,0.00,,,0.00,VWS V14.00,2013-02-03 11:36:00,
2013-02-03 13:39:00,63.6,51.6,29.77,ESE,112,15.4,15.4,65,0.00,,,0.00,VWS V14.00,2013-02-03 11:39:00,
2013-02-03 13:41:00,63.6,51.6,29.77,ESE,112,15.4,15.4,65,0.00,,,0.00,VWS V14.00,2013-02-03 11:41:00,
2013-02-03 13:44:00,63.6,51.6,29.77,South,180,12.3,15.4,65,0.00,,,0.00,VWS V14.00,2013-02-03 11:44:00,
2013-02-03 13:46:00,63.6,51.6,29.77,South,180,12.0,12.0,65,0.00,,,0.00,VWS V14.00,2013-02-03 11:46:00,
2013-02-03 13:49:00,63.6,51.6,29.77,SE,135,3.5,12.0,65,0.00,,,0.00,VWS V14.00,2013-02-03 11:49:00,
2013-02-03 13:51:00,63.6,51.6,29.77,SSW,202,8.2,8.2,65,0.00,,,0.00,VWS V14.00,2013-02-03 11:51:00,
2013-02-03 13:54:00,63.6,51.6,29.77,South,180,8.2,8.2,65,0.00,,,0.00,VWS V14.00,2013-02-03 11:54:00,
2013-02-03 13:56:00,63.6,51.6,29.76,ESE,112,0.8,8.2,65,0.00,,,0.00,VWS V14.00,2013-02-03 11:56:00,
2013-02-03 13:59:00,64.0,52.0,29.76,South,180,8.7,8.7,65,0.00,,,0.00,VWS V14.00,2013-02-03 11:59:00,
2013-02-03 14:01:00,64.0,52.0,29.76,SE,135,12.3,12.3,65,0.00,,,0.00,VWS V14.00,2013-02-03 12:01:00,
2013-02-03 14:04:00,64.0,51.6,29.76,South,180,10.0,12.3,64,0.00,,,0.00,VWS V14.00,2013-02-03 12:04:00,
2013-02-03 14:06:00,64.0,51.6,29.76,NE,45,4.4,10.0,64,0.00,,,0.00,VWS V14.00,2013-02-03 12:06:00,
2013-02-03 14:09:00,64.0,52.0,29.76,SW,225,9.6,10.0,65,0.00,,,0.00,VWS V14.00,2013-02-03 12:09:00,
2013-02-03 14:11:00,64.0,52.0,29.76,ESE,112,17.0,17.0,65,0.00,,,0.00,VWS V14.00,2013-02-03 12:11:00,
2013-02-03 14:14:00,63.6,51.2,29.76,SSW,202,8.7,17.0,64,0.00,,,0.00,VWS V14.00,2013-02-03 12:14:00,
2013-02-03 14:16:00,63.6,51.2,29.76,SSE,158,14.5,14.5,64,0.00,,,0.00,VWS V14.00,2013-02-03 12:16:00,
2013-02-03 14:19:00,63.6,51.2,29.76,SSW,202,10.9,15.6,64,0.00,,,0.00,VWS V14.00,2013-02-03 12:19:00,
2013-02-03 14:21:00,63.6,51.2,29.76,NNE,22,0.8,10.9,64,0.00,,,0.00,VWS V14.00,2013-02-03 12:21:00,
2013-02-03 14:24:00,63.6,51.2,29.76,East,90,8.9,10.9,64,0.00,,,0.00,VWS V14.00,2013-02-03 12:24:00,
2013-02-03 14:26:00,63.6,51.2,29.77,SSW,202,9.6,9.6,64,0.00,,,0.00,VWS V14.00,2013-02-03 12:26:00,
2013-02-03 14:30:00,63.6,51.2,29.76,SSW,202,6.9,9.6,64,0.00,,,0.00,VWS V14.00,2013-02-03 12:30:00,
2013-02-03 14:31:00,63.6,51.2,29.77,East,90,15.4,15.4,64,0.00,,,0.00,VWS V14.00,2013-02-03 12:31:00,
2013-02-03 14:35:00,63.6,51.6,29.76,South,180,15.6,15.6,65,0.00,,,0.00,VWS V14.00,2013-02-03 12:35:00,
2013-02-03 14:36:00,63.6,51.6,29.76,South,180,15.6,15.6,65,0.00,,,0.00,VWS V14.00,2013-02-03 12:36:00,
2013-02-03 14:37:00,63.6,51.6,29.76,South,180,15.6,15.6,65,0.00,,,0.00,VWS V14.00,2013-02-03 12:37:00,
2013-02-03 14:40:00,63.6,51.2,29.76,ESE,112,12.5,12.5,64,0.00,,,0.00,VWS V14.00,2013-02-03 12:40:00,
2013-02-03 14:41:00,63.5,51.1,29.76,SW,225,19.9,19.9,64,0.00,,,0.00,VWS V14.00,2013-02-03 12:41:00,
2013-02-03 14:42:00,63.5,51.1,29.76,SW,225,19.9,19.9,64,0.00,,,0.00,VWS V14.00,2013-02-03 12:42:00,
2013-02-03 14:45:00,63.5,51.5,29.76,WSW,248,9.6,9.6,65,0.00,,,0.00,VWS V14.00,2013-02-03 12:45:00,
2013-02-03 14:46:00,63.3,51.3,29.76,WSW,248,9.6,9.6,65,0.00,,,0.00,VWS V14.00,2013-02-03 12:46:00,
2013-02-03 14:47:00,63.3,51.3,29.76,WSW,248,9.6,9.6,65,0.00,,,0.00,VWS V14.00,2013-02-03 12:47:00,
2013-02-03 14:50:00,63.5,51.5,29.76,ESE,112,13.6,13.6,65,0.00,,,0.00,VWS V14.00,2013-02-03 12:50:00,
2013-02-03 14:51:00,63.5,51.5,29.76,ESE,112,13.6,13.6,65,0.00,,,0.00,VWS V14.00,2013-02-03 12:51:00,
2013-02-03 14:52:00,63.3,51.3,29.76,South,180,12.7,13.6,65,0.00,,,0.00,VWS V14.00,2013-02-03 12:52:00,
2013-02-03 14:55:00,63.3,51.3,29.76,South,180,10.7,10.7,65,0.00,,,0.00,VWS V14.00,2013-02-03 12:55:00,
2013-02-03 14:56:00,63.3,51.3,29.76,South,180,10.7,10.7,65,0.00,,,0.00,VWS V14.00,2013-02-03 12:56:00,
2013-02-03 14:57:00,63.3,51.3,29.76,South,180,10.7,10.7,65,0.00,,,0.00,VWS V14.00,2013-02-03 12:57:00,
2013-02-03 15:00:00,63.3,51.3,29.76,SE,135,10.7,10.7,65,0.00,,,0.00,VWS V14.00,2013-02-03 13:00:00,
2013-02-03 15:01:00,63.3,51.3,29.76,SSW,202,4.9,10.7,65,0.00,,,0.00,VWS V14.00,2013-02-03 13:01:00,
2013-02-03 15:02:00,63.3,51.3,29.76,SSW,202,4.9,10.7,65,0.00,,,0.00,VWS V14.00,2013-02-03 13:02:00,
2013-02-03 15:05:00,63.3,51.3,29.76,SW,225,5.3,5.3,65,0.00,,,0.00,VWS V14.00,2013-02-03 13:05:00,
2013-02-03 15:06:00,63.3,51.3,29.76,SW,225,5.3,5.3,65,0.00,,,0.00,VWS V14.00,2013-02-03 13:06:00,
2013-02-03 15:07:00,63.5,51.5,29.76,SSE,158,8.2,8.2,65,0.00,,,0.00,VWS V14.00,2013-02-03 13:07:00,
2013-02-03 15:10:00,63.5,51.5,29.76,SW,225,6.2,6.2,65,0.00,,,0.00,VWS V14.00,2013-02-03 13:10:00,
2013-02-03 15:11:00,63.5,51.5,29.76,SW,225,6.2,6.2,65,0.00,,,0.00,VWS V14.00,2013-02-03 13:11:00,
2013-02-03 15:12:00,63.5,51.5,29.76,SSW,202,9.8,9.8,65,0.00,,,0.00,VWS V14.00,2013-02-03 13:12:00,
2013-02-03 15:15:00,63.3,51.3,29.76,SSW,202,19.6,19.6,65,0.00,,,0.00,VWS V14.00,2013-02-03 13:15:00,
2013-02-03 15:16:00,63.3,51.3,29.77,SW,225,22.1,22.1,65,0.00,,,0.00,VWS V14.00,2013-02-03 13:16:00,
2013-02-03 15:17:00,63.3,51.3,29.76,SW,225,22.1,22.1,65,0.00,,,0.00,VWS V14.00,2013-02-03 13:17:00,
2013-02-03 15:20:00,63.3,51.3,29.76,SSW,202,4.0,4.0,65,0.00,,,0.00,VWS V14.00,2013-02-03 13:20:00,
2013-02-03 15:21:00,63.3,51.3,29.76,SSW,202,4.0,4.0,65,0.00,,,0.00,VWS V14.00,2013-02-03 13:21:00,
2013-02-03 15:22:00,63.3,51.3,29.76,ESE,112,16.7,16.7,65,0.00,,,0.00,VWS V14.00,2013-02-03 13:22:00,
2013-02-03 15:25:00,63.1,51.6,29.76,SSE,158,5.5,5.5,66,0.00,,,0.00,VWS V14.00,2013-02-03 13:25:00,
2013-02-03 15:26:00,63.1,51.6,29.76,SSE,158,5.5,5.5,66,0.00,,,0.00,VWS V14.00,2013-02-03 13:26:00,
2013-02-03 15:27:00,63.1,51.6,29.76,ESE,112,9.1,9.1,66,0.00,,,0.00,VWS V14.00,2013-02-03 13:27:00,
2013-02-03 15:30:00,62.9,51.4,29.76,SW,225,9.3,9.3,66,0.00,,,0.00,VWS V14.00,2013-02-03 13:30:00,
2013-02-03 15:32:00,63.1,51.6,29.76,SW,225,7.8,9.3,66,0.00,,,0.00,VWS V14.00,2013-02-03 13:32:00,
2013-02-03 15:35:00,62.9,51.4,29.76,SSW,202,4.0,4.0,66,0.00,,,0.00,VWS V14.00,2013-02-03 13:35:00,
2013-02-03 15:37:00,62.9,51.4,29.76,SSW,202,4.0,4.0,66,0.00,,,0.00,VWS V14.00,2013-02-03 13:37:00,
2013-02-03 15:40:00,62.9,51.8,29.75,East,90,8.5,8.5,67,0.00,,,0.00,VWS V14.00,2013-02-03 13:40:00,
2013-02-03 15:42:00,62.7,51.6,29.75,SE,135,6.4,8.5,67,0.00,,,0.00,VWS V14.00,2013-02-03 13:42:00,
2013-02-03 15:43:00,62.7,51.6,29.75,SE,135,6.4,8.5,67,0.00,,,0.00,VWS V14.00,2013-02-03 13:43:00,
2013-02-03 15:46:00,62.7,51.6,29.75,ESE,112,7.3,21.2,67,0.00,,,0.00,VWS V14.00,2013-02-03 13:46:00,
2013-02-03 15:47:00,62.7,51.6,29.75,ESE,112,7.3,21.2,67,0.00,,,0.00,VWS V14.00,2013-02-03 13:47:00,
2013-02-03 15:48:00,62.7,51.6,29.75,ESE,112,7.3,21.2,67,0.00,,,0.00,VWS V14.00,2013-02-03 13:48:00,
2013-02-03 15:51:00,62.6,51.9,29.75,SSW,202,13.8,13.8,68,0.00,,,0.00,VWS V14.00,2013-02-03 13:51:00,
2013-02-03 15:52:00,62.6,51.9,29.75,SE,135,7.1,13.8,68,0.00,,,0.00,VWS V14.00,2013-02-03 13:52:00,
2013-02-03 15:53:00,62.6,51.9,29.75,SE,135,7.1,13.8,68,0.00,,,0.00,VWS V14.00,2013-02-03 13:53:00,
2013-02-03 15:56:00,62.4,51.7,29.75,SW,225,21.0,21.0,68,0.00,,,0.00,VWS V14.00,2013-02-03 13:56:00,
2013-02-03 15:57:00,62.4,51.7,29.75,WSW,248,10.7,21.0,68,0.00,,,0.00,VWS V14.00,2013-02-03 13:57:00,
2013-02-03 15:58:00,62.4,51.7,29.75,WSW,248,10.7,21.0,68,0.00,,,0.00,VWS V14.00,2013-02-03 13:58:00,
2013-02-03 16:01:00,62.4,51.7,29.75,SW,225,18.1,18.1,68,0.00,,,0.00,VWS V14.00,2013-02-03 14:01:00,
2013-02-03 16:02:00,62.4,51.7,29.75,SW,225,18.1,18.1,68,0.00,,,0.00,VWS V14.00,2013-02-03 14:02:00,
2013-02-03 16:03:00,62.4,51.7,29.75,SE,135,18.1,18.1,68,0.00,,,0.00,VWS V14.00,2013-02-03 14:03:00,
2013-02-03 16:06:00,62.4,51.7,29.75,South,180,3.3,3.3,68,0.00,,,0.00,VWS V14.00,2013-02-03 14:06:00,
2013-02-03 16:07:00,62.4,51.7,29.75,SSE,158,19.2,19.2,68,0.00,,,0.00,VWS V14.00,2013-02-03 14:07:00,
2013-02-03 16:08:00,62.4,51.7,29.75,SSE,158,19.2,19.2,68,0.00,,,0.00,VWS V14.00,2013-02-03 14:08:00,
2013-02-03 16:11:00,62.4,51.7,29.75,SSW,202,4.9,4.9,68,0.00,,,0.00,VWS V14.00,2013-02-03 14:11:00,
2013-02-03 16:12:00,62.4,51.7,29.75,SSW,202,10.2,10.2,68,0.00,,,0.00,VWS V14.00,2013-02-03 14:12:00,
2013-02-03 16:13:00,62.4,51.7,29.75,SSW,202,10.2,10.2,68,0.00,,,0.00,VWS V14.00,2013-02-03 14:13:00,
2013-02-03 16:16:00,62.4,51.7,29.75,WSW,248,16.7,16.7,68,0.00,,,0.00,VWS V14.00,2013-02-03 14:16:00,
2013-02-03 16:17:00,62.4,51.7,29.75,WSW,248,16.7,16.7,68,0.00,,,0.00,VWS V14.00,2013-02-03 14:17:00,
2013-02-03 16:18:00,62.4,51.7,29.75,WSW,248,16.7,16.7,68,0.00,,,0.00,VWS V14.00,2013-02-03 14:18:00,
2013-02-03 16:22:00,62.2,51.5,29.75,SSW,202,8.9,8.9,68,0.00,,,0.00,VWS V14.00,2013-02-03 14:22:00,
2013-02-03 16:23:00,62.4,51.7,29.75,SSW,202,17.2,17.2,68,0.00,,,0.00,VWS V14.00,2013-02-03 14:23:00,
2013-02-03 16:27:00,62.2,51.5,29.75,SSW,202,15.4,15.4,68,0.00,,,0.00,VWS V14.00,2013-02-03 14:27:00,
2013-02-03 16:28:00,62.2,51.9,29.75,SW,225,1.5,15.4,69,0.00,,,0.00,VWS V14.00,2013-02-03 14:28:00,
2013-02-03 16:32:00,62.2,51.9,29.75,SE,135,2.4,3.1,69,0.00,,,0.00,VWS V14.00,2013-02-03 14:32:00,
2013-02-03 16:33:00,62.2,51.9,29.75,SSW,202,8.9,8.9,69,0.00,,,0.00,VWS V14.00,2013-02-03 14:33:00,
2013-02-03 16:37:00,61.8,51.5,29.76,SSE,158,8.9,8.9,69,0.00,,,0.00,VWS V14.00,2013-02-03 14:37:00,
2013-02-03 16:38:00,62.0,51.7,29.76,ESE,112,9.8,9.8,69,0.00,,,0.00,VWS V14.00,2013-02-03 14:38:00,
2013-02-03 16:42:00,61.8,51.5,29.76,SSW,202,9.1,9.1,69,0.00,,,0.00,VWS V14.00,2013-02-03 14:42:00,
2013-02-03 16:43:00,61.8,51.5,29.76,SSW,202,11.8,11.8,69,0.00,,,0.00,VWS V14.00,2013-02-03 14:43:00,
2013-02-03 16:47:00,61.7,51.8,29.76,WSW,248,11.4,12.7,70,0.00,,,0.00,VWS V14.00,2013-02-03 14:47:00,
2013-02-03 16:48:00,61.7,51.8,29.76,East,90,12.0,12.7,70,0.00,,,0.00,VWS V14.00,2013-02-03 14:48:00,
2013-02-03 16:49:00,61.7,51.8,29.76,East,90,12.0,12.7,70,0.00,,,0.00,VWS V14.00,2013-02-03 14:49:00,
2013-02-03 16:52:00,61.5,51.6,29.76,SSW,202,5.5,22.1,70,0.00,,,0.00,VWS V14.00,2013-02-03 14:52:00,
2013-02-03 16:53:00,61.5,51.6,29.76,SSW,202,5.5,22.1,70,0.00,,,0.00,VWS V14.00,2013-02-03 14:53:00,
2013-02-03 16:54:00,61.5,51.6,29.76,SSW,202,5.5,22.1,70,0.00,,,0.00,VWS V14.00,2013-02-03 14:54:00,
2013-02-03 16:57:00,61.5,52.0,29.76,South,180,13.1,13.1,71,0.00,,,0.00,VWS V14.00,2013-02-03 14:57:00,
2013-02-03 16:58:00,61.5,52.0,29.76,South,180,13.1,13.1,71,0.00,,,0.00,VWS V14.00,2013-02-03 14:58:00,
2013-02-03 16:59:00,61.5,52.0,29.76,South,180,13.1,13.1,71,0.00,,,0.00,VWS V14.00,2013-02-03 14:59:00,
2013-02-03 17:02:00,61.3,51.8,29.76,SE,135,6.9,6.9,71,0.00,,,0.00,VWS V14.00,2013-02-03 15:02:00,
2013-02-03 17:03:00,61.3,51.8,29.76,South,180,6.4,6.9,71,0.00,,,0.00,VWS V14.00,2013-02-03 15:03:00,
2013-02-03 17:04:00,61.3,51.8,29.76,South,180,6.4,6.9,71,0.00,,,0.00,VWS V14.00,2013-02-03 15:04:00,
2013-02-03 17:07:00,61.1,52.0,29.76,SW,225,4.0,6.9,72,0.00,,,0.00,VWS V14.00,2013-02-03 15:07:00,
2013-02-03 17:08:00,61.1,52.0,29.76,SW,225,4.0,6.9,72,0.00,,,0.00,VWS V14.00,2013-02-03 15:08:00,
2013-02-03 17:09:00,61.1,52.0,29.76,SW,225,4.0,6.9,72,0.00,,,0.00,VWS V14.00,2013-02-03 15:09:00,
2013-02-03 17:12:00,60.9,51.8,29.76,NE,45,6.0,11.4,72,0.00,,,0.00,VWS V14.00,2013-02-03 15:12:00,
2013-02-03 17:13:00,60.9,51.8,29.76,NE,45,6.0,11.4,72,0.00,,,0.00,VWS V14.00,2013-02-03 15:13:00,
2013-02-03 17:14:00,60.9,51.8,29.76,NE,45,6.0,11.4,72,0.00,,,0.00,VWS V14.00,2013-02-03 15:14:00,
2013-02-03 17:17:00,60.8,52.1,29.76,SSW,202,3.3,16.3,73,0.00,,,0.00,VWS V14.00,2013-02-03 15:17:00,
2013-02-03 17:18:00,60.8,52.1,29.76,SSE,158,5.5,16.3,73,0.00,,,0.00,VWS V14.00,2013-02-03 15:18:00,
2013-02-03 17:19:00,60.8,52.1,29.76,SSE,158,5.5,16.3,73,0.00,,,0.00,VWS V14.00,2013-02-03 15:19:00,
2013-02-03 17:22:00,60.6,51.9,29.76,SW,225,14.0,14.0,73,0.00,,,0.00,VWS V14.00,2013-02-03 15:22:00,
2013-02-03 17:23:00,60.6,51.9,29.76,SW,225,14.0,14.0,73,0.00,,,0.00,VWS V14.00,2013-02-03 15:23:00,
2013-02-03 17:24:00,60.6,51.9,29.76,SW,225,14.0,14.0,73,0.00,,,0.00,VWS V14.00,2013-02-03 15:24:00,
2013-02-03 17:27:00,60.6,51.9,29.76,SW,225,14.3,14.3,73,0.00,,,0.00,VWS V14.00,2013-02-03 15:27:00,
2013-02-03 17:28:00,60.6,51.9,29.76,SW,225,14.3,14.3,73,0.00,,,0.00,VWS V14.00,2013-02-03 15:28:00,
2013-02-03 17:29:00,60.6,51.9,29.76,WSW,248,11.8,14.3,73,0.00,,,0.00,VWS V14.00,2013-02-03 15:29:00,
2013-02-03 17:32:00,60.6,51.9,29.76,South,180,9.1,11.8,73,0.00,,,0.00,VWS V14.00,2013-02-03 15:32:00,
2013-02-03 17:33:00,60.6,51.9,29.76,South,180,6.2,11.8,73,0.00,,,0.00,VWS V14.00,2013-02-03 15:33:00,
2013-02-03 17:34:00,60.6,51.9,29.76,South,180,6.2,11.8,73,0.00,,,0.00,VWS V14.00,2013-02-03 15:34:00,
2013-02-03 17:35:00,60.6,51.9,29.76,South,180,6.2,11.8,73,0.00,,,0.00,VWS V14.00,2013-02-03 15:35:00,
2013-02-03 17:37:00,60.4,51.7,29.76,North,0,3.3,13.4,73,0.00,,,0.00,VWS V14.00,2013-02-03 15:37:00,
2013-02-03 17:38:00,60.4,51.7,29.76,North,0,3.3,13.4,73,0.00,,,0.00,VWS V14.00,2013-02-03 15:38:00,
2013-02-03 17:39:00,60.4,51.7,29.76,SSW,202,11.8,13.4,73,0.00,,,0.00,VWS V14.00,2013-02-03 15:39:00,
2013-02-03 17:40:00,60.4,51.7,29.76,SSW,202,11.8,11.8,73,0.00,,,0.00,VWS V14.00,2013-02-03 15:40:00,
2013-02-03 17:42:00,60.4,51.7,29.76,South,180,0.0,11.8,73,0.00,,,0.00,VWS V14.00,2013-02-03 15:42:00,
2013-02-03 17:43:00,60.4,51.7,29.76,South,180,0.0,11.8,73,0.00,,,0.00,VWS V14.00,2013-02-03 15:43:00,
2013-02-03 17:44:00,60.2,51.5,29.76,West,270,12.3,12.3,73,0.00,,,0.00,VWS V14.00,2013-02-03 15:44:00,
2013-02-03 17:45:00,60.2,51.5,29.76,West,270,12.3,12.3,73,0.00,,,0.00,VWS V14.00,2013-02-03 15:45:00,
2013-02-03 17:47:00,60.0,51.3,29.76,SW,225,15.8,15.8,73,0.00,,,0.00,VWS V14.00,2013-02-03 15:47:00,
2013-02-03 17:48:00,60.0,51.3,29.76,WSW,248,6.7,15.8,73,0.00,,,0.00,VWS V14.00,2013-02-03 15:48:00,
2013-02-03 17:49:00,60.0,51.3,29.76,WSW,248,6.7,15.8,73,0.00,,,0.00,VWS V14.00,2013-02-03 15:49:00,
2013-02-03 17:50:00,60.0,51.3,29.76,SW,225,5.8,5.8,73,0.00,,,0.00,VWS V14.00,2013-02-03 15:50:00,
2013-02-03 17:52:00,60.0,51.7,29.76,SSW,202,5.1,5.8,74,0.00,,,0.00,VWS V14.00,2013-02-03 15:52:00,
2013-02-03 17:53:00,60.0,51.7,29.76,SSW,202,5.1,5.8,74,0.00,,,0.00,VWS V14.00,2013-02-03 15:53:00,
2013-02-03 17:54:00,60.0,51.7,29.76,SW,225,5.3,5.8,74,0.00,,,0.00,VWS V14.00,2013-02-03 15:54:00,
2013-02-03 17:55:00,60.0,51.7,29.76,SW,225,5.3,5.3,74,0.00,,,0.00,VWS V14.00,2013-02-03 15:55:00,
2013-02-03 17:57:00,60.0,51.7,29.77,WSW,248,19.6,19.6,74,0.00,,,0.00,VWS V14.00,2013-02-03 15:57:00,
2013-02-03 17:59:00,60.0,51.7,29.77,WSW,248,19.6,19.6,74,0.00,,,0.00,VWS V14.00,2013-02-03 15:59:00,
2013-02-03 18:00:00,59.9,51.6,29.77,South,180,10.2,10.2,74,0.00,,,0.00,VWS V14.00,2013-02-03 16:00:00,
2013-02-03 18:02:00,59.9,51.6,29.77,East,90,2.6,10.2,74,0.00,,,0.00,VWS V14.00,2013-02-03 16:02:00,
2013-02-03 18:04:00,59.9,51.6,29.78,South,180,17.0,17.0,74,0.00,,,0.00,VWS V14.00,2013-02-03 16:04:00,
2013-02-03 18:05:00,59.7,51.8,29.78,SSW,202,18.1,18.1,75,0.00,,,0.00,VWS V14.00,2013-02-03 16:05:00,
2013-02-03 18:07:00,59.7,51.8,29.78,SSW,202,8.2,18.1,75,0.00,,,0.00,VWS V14.00,2013-02-03 16:07:00,
2013-02-03 18:09:00,59.5,51.6,29.78,SSW,202,8.2,18.1,75,0.00,,,0.00,VWS V14.00,2013-02-03 16:09:00,
2013-02-03 18:10:00,59.5,51.6,29.78,SSW,202,16.7,16.7,75,0.00,,,0.00,VWS V14.00,2013-02-03 16:10:00,
2013-02-03 18:12:00,59.5,51.6,29.78,SSW,202,10.5,16.7,75,0.00,,,0.00,VWS V14.00,2013-02-03 16:12:00,
2013-02-03 18:14:00,59.5,51.6,29.78,South,180,2.4,16.7,75,0.00,,,0.00,VWS V14.00,2013-02-03 16:14:00,
2013-02-03 18:15:00,59.5,51.6,29.79,South,180,2.4,2.4,75,0.00,,,0.00,VWS V14.00,2013-02-03 16:15:00,
2013-02-03 18:17:00,59.5,51.6,29.79,South,180,15.6,15.6,75,0.00,,,0.00,VWS V14.00,2013-02-03 16:17:00,
2013-02-03 18:19:00,59.5,51.6,29.79,WNW,292,2.6,15.6,75,0.00,,,0.00,VWS V14.00,2013-02-03 16:19:00,
2013-02-03 18:20:00,59.5,51.6,29.79,WNW,292,2.6,15.6,75,0.00,,,0.00,VWS V14.00,2013-02-03 16:20:00,
2013-02-03 18:22:00,59.3,51.4,29.79,SW,225,16.3,16.3,75,0.00,,,0.00,VWS V14.00,2013-02-03 16:22:00,
2013-02-03 18:24:00,59.3,51.8,29.79,SSE,158,7.8,16.3,76,0.00,,,0.00,VWS V14.00,2013-02-03 16:24:00,
2013-02-03 18:25:00,59.3,51.8,29.79,SSE,158,7.8,16.3,76,0.00,,,0.00,VWS V14.00,2013-02-03 16:25:00,
2013-02-03 18:26:00,59.3,51.8,29.79,SSE,158,7.8,7.8,76,0.00,,,0.00,VWS V14.00,2013-02-03 16:26:00,
2013-02-03 18:27:00,59.3,51.8,29.79,South,180,13.6,13.6,76,0.00,,,0.00,VWS V14.00,2013-02-03 16:27:00,
2013-02-03 18:29:00,59.1,51.5,29.79,WSW,248,3.1,13.6,76,0.00,,,0.00,VWS V14.00,2013-02-03 16:29:00,
2013-02-03 18:30:00,59.1,51.5,29.79,WSW,248,3.1,13.6,76,0.00,,,0.00,VWS V14.00,2013-02-03 16:30:00,
2013-02-03 18:31:00,59.1,51.5,29.79,SSW,202,9.1,9.1,76,0.00,,,0.00,VWS V14.00,2013-02-03 16:31:00,
2013-02-03 18:33:00,59.1,51.5,29.79,SSW,202,6.4,9.1,76,0.00,,,0.00,VWS V14.00,2013-02-03 16:33:00,
2013-02-03 18:34:00,59.1,51.5,29.79,SSW,202,6.4,9.1,76,0.00,,,0.00,VWS V14.00,2013-02-03 16:34:00,
2013-02-03 18:35:00,59.1,51.9,29.79,SSW,202,18.3,18.3,77,0.00,,,0.00,VWS V14.00,2013-02-03 16:35:00,
2013-02-03 18:36:00,59.1,51.9,29.79,SSW,202,18.3,18.3,77,0.00,,,0.00,VWS V14.00,2013-02-03 16:36:00,
2013-02-03 18:38:00,59.1,51.9,29.79,WSW,248,2.2,18.3,77,0.00,,,0.00,VWS V14.00,2013-02-03 16:38:00,
2013-02-03 18:39:00,59.1,51.9,29.79,SSW,202,7.8,18.3,77,0.00,,,0.00,VWS V14.00,2013-02-03 16:39:00,
2013-02-03 18:40:00,59.0,51.8,29.79,SSW,202,7.8,18.3,77,0.00,,,0.00,VWS V14.00,2013-02-03 16:40:00,
2013-02-03 18:41:00,59.0,51.8,29.79,SSW,202,7.8,7.8,77,0.00,,,0.00,VWS V14.00,2013-02-03 16:41:00,
2013-02-03 18:43:00,59.1,51.9,29.80,SSW,202,6.9,7.8,77,0.00,,,0.00,VWS V14.00,2013-02-03 16:43:00,
2013-02-03 18:44:00,59.0,51.8,29.79,West,270,2.6,7.8,77,0.00,,,0.00,VWS V14.00,2013-02-03 16:44:00,
2013-02-03 18:45:00,59.0,51.8,29.80,West,270,2.6,2.6,77,0.00,,,0.00,VWS V14.00,2013-02-03 16:45:00,
2013-02-03 18:46:00,58.8,51.6,29.79,SW,225,15.4,15.4,77,0.00,,,0.00,VWS V14.00,2013-02-03 16:46:00,
2013-02-03 18:48:00,58.8,51.6,29.80,ESE,112,2.4,15.4,77,0.00,,,0.00,VWS V14.00,2013-02-03 16:48:00,
2013-02-03 18:49:00,58.8,51.6,29.79,ESE,112,2.4,15.4,77,0.00,,,0.00,VWS V14.00,2013-02-03 16:49:00,
2013-02-03 18:50:00,58.8,51.6,29.80,ESE,112,12.0,15.4,77,0.00,,,0.00,VWS V14.00,2013-02-03 16:50:00,
2013-02-03 18:51:00,58.8,51.6,29.79,ESE,112,12.0,12.0,77,0.00,,,0.00,VWS V14.00,2013-02-03 16:51:00,
2013-02-03 18:53:00,58.8,52.0,29.80,SSW,202,2.9,12.0,78,0.00,,,0.00,VWS V14.00,2013-02-03 16:53:00,
2013-02-03 18:54:00,58.8,52.0,29.80,SSW,202,8.9,12.0,78,0.00,,,0.00,VWS V14.00,2013-02-03 16:54:00,
2013-02-03 18:55:00,58.8,52.0,29.80,SSW,202,8.9,8.9,78,0.00,,,0.00,VWS V14.00,2013-02-03 16:55:00,
2013-02-03 18:56:00,58.8,52.0,29.80,SSW,202,7.1,8.9,78,0.00,,,0.00,VWS V14.00,2013-02-03 16:56:00,
2013-02-03 18:58:00,58.8,52.0,29.79,SSW,202,7.1,8.9,78,0.00,,,0.00,VWS V14.00,2013-02-03 16:58:00,
2013-02-03 18:59:00,58.8,52.0,29.80,WSW,248,13.4,13.4,78,0.00,,,0.00,VWS V14.00,2013-02-03 16:59:00,
2013-02-03 19:00:00,58.8,52.0,29.80,WSW,248,13.4,13.4,78,0.00,,,0.00,VWS V14.00,2013-02-03 17:00:00,
2013-02-03 19:01:00,58.8,52.0,29.80,SSW,202,14.5,14.5,78,0.00,,,0.00,VWS V14.00,2013-02-03 17:01:00,
2013-02-03 19:03:00,58.8,52.0,29.80,SSW,202,12.0,14.5,78,0.00,,,0.00,VWS V14.00,2013-02-03 17:03:00,
2013-02-03 19:05:00,58.8,52.0,29.81,SSW,202,12.0,14.5,78,0.00,,,0.00,VWS V14.00,2013-02-03 17:05:00,
2013-02-03 19:06:00,58.8,52.0,29.80,SSW,202,5.8,5.8,78,0.00,,,0.00,VWS V14.00,2013-02-03 17:06:00,
2013-02-03 19:08:00,58.8,52.0,29.81,SSW,202,4.2,5.8,78,0.00,,,0.00,VWS V14.00,2013-02-03 17:08:00,
2013-02-03 19:10:00,58.8,52.3,29.81,SE,135,2.2,5.8,79,0.00,,,0.00,VWS V14.00,2013-02-03 17:10:00,
2013-02-03 19:12:00,58.8,52.3,29.81,SSW,202,5.5,5.5,79,0.00,,,0.00,VWS V14.00,2013-02-03 17:12:00,
2013-02-03 19:13:00,58.8,52.3,29.81,SSW,202,5.5,5.5,79,0.00,,,0.00,VWS V14.00,2013-02-03 17:13:00,
2013-02-03 19:15:00,58.8,52.3,29.81,WSW,248,4.0,4.0,79,0.00,,,0.00,VWS V14.00,2013-02-03 17:15:00,
2013-02-03 19:17:00,58.6,52.1,29.81,SSE,158,12.9,12.9,79,0.00,,,0.00,VWS V14.00,2013-02-03 17:17:00,
2013-02-03 19:18:00,58.6,52.1,29.81,North,0,4.4,12.9,79,0.00,,,0.00,VWS V14.00,2013-02-03 17:18:00,
2013-02-03 19:20:00,58.6,52.1,29.81,WSW,248,4.0,4.0,79,0.00,,,0.00,VWS V14.00,2013-02-03 17:20:00,
2013-02-03 19:22:00,58.6,52.1,29.81,WSW,248,4.0,4.0,79,0.00,,,0.00,VWS V14.00,2013-02-03 17:22:00,
2013-02-03 19:23:00,58.6,52.1,29.82,WSW,248,3.8,4.0,79,0.00,,,0.00,VWS V14.00,2013-02-03 17:23:00,
2013-02-03 19:25:00,58.6,52.1,29.82,SSW,202,8.9,8.9,79,0.00,,,0.00,VWS V14.00,2013-02-03 17:25:00,
2013-02-03 19:27:00,58.6,52.1,29.82,WSW,248,4.0,8.9,79,0.00,,,0.00,VWS V14.00,2013-02-03 17:27:00,
2013-02-03 19:28:00,58.6,52.1,29.82,WSW,248,4.0,8.9,79,0.00,,,0.00,VWS V14.00,2013-02-03 17:28:00,
2013-02-03 19:30:00,58.6,52.1,29.82,WSW,248,5.1,5.1,79,0.00,,,0.00,VWS V14.00,2013-02-03 17:30:00,
2013-02-03 19:32:00,58.6,52.1,29.82,West,270,6.2,6.2,79,0.00,,,0.00,VWS V14.00,2013-02-03 17:32:00,
2013-02-03 19:33:00,58.6,52.1,29.82,South,180,7.3,7.3,79,0.00,,,0.00,VWS V14.00,2013-02-03 17:33:00,
2013-02-03 19:35:00,58.4,51.9,29.82,SSE,158,6.4,6.4,79,0.00,,,0.00,VWS V14.00,2013-02-03 17:35:00,
2013-02-03 19:37:00,58.4,52.3,29.83,SSW,202,5.1,6.4,80,0.00,,,0.00,VWS V14.00,2013-02-03 17:37:00,
2013-02-03 19:38:00,58.4,52.3,29.82,SSW,202,5.1,6.4,80,0.00,,,0.00,VWS V14.00,2013-02-03 17:38:00,
2013-02-03 19:40:00,58.4,52.3,29.82,WSW,248,0.8,0.8,80,0.00,,,0.00,VWS V14.00,2013-02-03 17:40:00,
2013-02-03 19:42:00,58.4,52.3,29.82,SE,135,11.8,11.8,80,0.00,,,0.00,VWS V14.00,2013-02-03 17:42:00,
2013-02-03 19:43:00,58.4,52.3,29.83,SE,135,11.8,11.8,80,0.00,,,0.00,VWS V14.00,2013-02-03 17:43:00,
2013-02-03 19:45:00,58.2,52.1,29.83,SE,135,7.8,7.8,80,0.00,,,0.00,VWS V14.00,2013-02-03 17:45:00,
2013-02-03 19:47:00,58.4,52.3,29.83,West,270,7.3,7.8,80,0.00,,,0.00,VWS V14.00,2013-02-03 17:47:00,
2013-02-03 19:48:00,58.4,52.3,29.83,West,270,0.0,7.8,80,0.00,,,0.00,VWS V14.00,2013-02-03 17:48:00,
2013-02-03 19:50:00,58.2,52.1,29.83,ESE,112,6.2,6.2,80,0.00,,,0.00,VWS V14.00,2013-02-03 17:50:00,
2013-02-03 19:52:00,58.2,52.1,29.83,SW,225,10.2,10.2,80,0.00,,,0.00,VWS V14.00,2013-02-03 17:52:00,
2013-02-03 19:53:00,58.2,52.1,29.84,SW,225,10.2,10.2,80,0.00,,,0.00,VWS V14.00,2013-02-03 17:53:00,
2013-02-03 19:55:00,58.2,52.1,29.84,East,90,0.0,0.0,80,0.00,,,0.00,VWS V14.00,2013-02-03 17:55:00,
2013-02-03 19:56:00,58.2,52.1,29.84,East,90,0.0,0.0,80,0.00,,,0.00,VWS V14.00,2013-02-03 17:56:00,
2013-02-03 19:57:00,58.2,52.1,29.84,SSW,202,4.0,4.0,80,0.00,,,0.00,VWS V14.00,2013-02-03 17:57:00,
2013-02-03 19:58:00,58.2,52.1,29.84,SSW,202,4.0,4.0,80,0.00,,,0.00,VWS V14.00,2013-02-03 17:58:00,
2013-02-03 20:00:00,58.2,52.1,29.84,ESE,112,9.6,9.6,80,0.00,,,0.00,VWS V14.00,2013-02-03 18:00:00,
2013-02-03 20:01:00,58.2,52.1,29.84,ESE,112,9.6,9.6,80,0.00,,,0.00,VWS V14.00,2013-02-03 18:01:00,
2013-02-03 20:02:00,58.2,52.4,29.84,South,180,3.1,9.6,81,0.00,,,0.00,VWS V14.00,2013-02-03 18:02:00,
2013-02-03 20:04:00,58.2,52.4,29.84,ESE,112,3.8,9.6,81,0.00,,,0.00,VWS V14.00,2013-02-03 18:04:00,
2013-02-03 20:05:00,58.2,52.4,29.84,South,180,7.8,7.8,81,0.00,,,0.00,VWS V14.00,2013-02-03 18:05:00,
2013-02-03 20:06:00,58.2,52.4,29.84,South,180,7.8,7.8,81,0.00,,,0.00,VWS V14.00,2013-02-03 18:06:00,
2013-02-03 20:07:00,58.2,52.4,29.84,WSW,248,0.0,7.8,81,0.00,,,0.00,VWS V14.00,2013-02-03 18:07:00,
2013-02-03 20:09:00,58.2,52.4,29.84,WSW,248,0.0,7.8,81,0.00,,,0.00,VWS V14.00,2013-02-03 18:09:00,
2013-02-03 20:10:00,58.2,52.4,29.84,South,180,5.1,5.1,81,0.00,,,0.00,VWS V14.00,2013-02-03 18:10:00,
2013-02-03 20:11:00,58.1,52.3,29.84,South,180,5.1,5.1,81,0.00,,,0.00,VWS V14.00,2013-02-03 18:11:00,
2013-02-03 20:12:00,58.1,52.3,29.84,ENE,68,2.0,5.1,81,0.00,,,0.00,VWS V14.00,2013-02-03 18:12:00,
2013-02-03 20:14:00,58.1,52.3,29.84,ENE,68,2.0,5.1,81,0.00,,,0.00,VWS V14.00,2013-02-03 18:14:00,
2013-02-03 20:15:00,58.1,52.3,29.84,SW,225,3.8,3.8,81,0.00,,,0.00,VWS V14.00,2013-02-03 18:15:00,
2013-02-03 20:16:00,58.2,52.4,29.84,SE,135,9.3,9.3,81,0.00,,,0.00,VWS V14.00,2013-02-03 18:16:00,
2013-02-03 20:17:00,58.2,52.4,29.85,SE,135,9.3,9.3,81,0.00,,,0.00,VWS V14.00,2013-02-03 18:17:00,
2013-02-03 20:19:00,58.2,52.4,29.84,ESE,112,7.1,9.3,81,0.00,,,0.00,VWS V14.00,2013-02-03 18:19:00,
2013-02-03 20:20:00,58.1,52.3,29.84,SSW,202,0.0,0.0,81,0.00,,,0.00,VWS V14.00,2013-02-03 18:20:00,
2013-02-03 20:21:00,58.1,52.3,29.85,SSW,202,0.0,0.0,81,0.00,,,0.00,VWS V14.00,2013-02-03 18:21:00,
2013-02-03 20:22:00,58.1,52.3,29.85,SW,225,7.6,7.6,81,0.00,,,0.00,VWS V14.00,2013-02-03 18:22:00,
2013-02-03 20:24:00,58.1,52.3,29.85,NW,315,0.6,7.6,81,0.00,,,0.00,VWS V14.00,2013-02-03 18:24:00,
2013-02-03 20:25:00,58.1,52.3,29.85,NW,315,0.6,0.6,81,0.00,,,0.00,VWS V14.00,2013-02-03 18:25:00,
2013-02-03 20:26:00,58.1,52.3,29.85,SSW,202,8.5,8.5,81,0.00,,,0.00,VWS V14.00,2013-02-03 18:26:00,
2013-02-03 20:27:00,58.1,52.3,29.85,SSW,202,8.5,8.5,81,0.00,,,0.00,VWS V14.00,2013-02-03 18:27:00,
2013-02-03 20:29:00,58.1,52.3,29.85,SSW,202,8.7,8.7,81,0.00,,,0.00,VWS V14.00,2013-02-03 18:29:00,
2013-02-03 20:30:00,58.1,52.3,29.85,SSW,202,8.7,8.7,81,0.00,,,0.00,VWS V14.00,2013-02-03 18:30:00,
2013-02-03 20:31:00,58.1,52.3,29.85,SSW,202,2.4,8.7,81,0.00,,,0.00,VWS V14.00,2013-02-03 18:31:00,
2013-02-03 20:32:00,58.1,52.3,29.85,SSW,202,2.4,8.7,81,0.00,,,0.00,VWS V14.00,2013-02-03 18:32:00,
2013-02-03 20:34:00,58.1,52.3,29.85,WSW,248,6.9,8.7,81,0.00,,,0.00,VWS V14.00,2013-02-03 18:34:00,
2013-02-03 20:35:00,58.1,52.3,29.85,SSE,158,0.0,0.0,81,0.00,,,0.00,VWS V14.00,2013-02-03 18:35:00,
2013-02-03 20:36:00,58.1,52.3,29.85,SSE,158,0.0,0.0,81,0.00,,,0.00,VWS V14.00,2013-02-03 18:36:00,
2013-02-03 20:37:00,58.1,52.3,29.85,West,270,0.0,0.0,81,0.00,,,0.00,VWS V14.00,2013-02-03 18:37:00,
2013-02-03 20:39:00,58.1,52.3,29.86,SSW,202,2.2,2.2,81,0.00,,,0.00,VWS V14.00,2013-02-03 18:39:00,
2013-02-03 20:41:00,57.9,52.1,29.86,East,90,2.6,2.6,81,0.00,,,0.00,VWS V14.00,2013-02-03 18:41:00,
2013-02-03 20:42:00,57.9,52.5,29.86,East,90,2.6,2.6,82,0.00,,,0.00,VWS V14.00,2013-02-03 18:42:00,
2013-02-03 20:44:00,57.9,52.5,29.86,ESE,112,6.0,6.0,82,0.00,,,0.00,VWS V14.00,2013-02-03 18:44:00,
2013-02-03 20:46:00,57.9,52.5,29.86,SSW,202,4.4,6.0,82,0.00,,,0.00,VWS V14.00,2013-02-03 18:46:00,
2013-02-03 20:47:00,57.9,52.5,29.86,SSW,202,4.4,6.0,82,0.00,,,0.00,VWS V14.00,2013-02-03 18:47:00,
2013-02-03 20:49:00,57.9,52.5,29.86,South,180,0.0,6.0,82,0.00,,,0.00,VWS V14.00,2013-02-03 18:49:00,
2013-02-03 20:51:00,57.9,52.5,29.86,South,180,8.5,8.5,82,0.00,,,0.00,VWS V14.00,2013-02-03 18:51:00,
2013-02-03 20:52:00,57.9,52.5,29.86,SSW,202,2.4,8.5,82,0.00,,,0.00,VWS V14.00,2013-02-03 18:52:00,
2013-02-03 20:54:00,57.9,52.5,29.86,ESE,112,0.6,8.5,82,0.00,,,0.00,VWS V14.00,2013-02-03 18:54:00,
2013-02-03 20:56:00,57.9,52.5,29.86,ESE,112,8.9,8.9,82,0.00,,,0.00,VWS V14.00,2013-02-03 18:56:00,
2013-02-03 20:57:00,57.9,52.5,29.86,ESE,112,8.9,8.9,82,0.00,,,0.00,VWS V14.00,2013-02-03 18:57:00,
2013-02-03 20:59:00,57.9,52.5,29.86,West,270,0.0,8.9,82,0.00,,,0.00,VWS V14.00,2013-02-03 18:59:00,
2013-02-03 21:01:00,57.9,52.5,29.86,East,90,1.7,1.7,82,0.00,,,0.00,VWS V14.00,2013-02-03 19:01:00,
2013-02-03 21:02:00,57.9,52.5,29.86,East,90,1.7,1.7,82,0.00,,,0.00,VWS V14.00,2013-02-03 19:02:00,
2013-02-03 21:04:00,57.9,52.5,29.86,WSW,248,0.6,1.7,82,0.00,,,0.00,VWS V14.00,2013-02-03 19:04:00,
2013-02-03 21:06:00,57.9,52.5,29.86,SSW,202,2.9,2.9,82,0.00,,,0.00,VWS V14.00,2013-02-03 19:06:00,
2013-02-03 21:07:00,57.9,52.5,29.86,ESE,112,3.5,3.5,82,0.00,,,0.00,VWS V14.00,2013-02-03 19:07:00,
2013-02-03 21:09:00,57.9,52.5,29.86,SW,225,3.5,3.5,82,0.00,,,0.00,VWS V14.00,2013-02-03 19:09:00,
2013-02-03 21:11:00,57.9,52.5,29.86,ESE,112,5.5,5.5,82,0.00,,,0.00,VWS V14.00,2013-02-03 19:11:00,
2013-02-03 21:12:00,57.9,52.5,29.86,ESE,112,5.5,5.5,82,0.00,,,0.00,VWS V14.00,2013-02-03 19:12:00,
2013-02-03 21:14:00,57.9,52.5,29.86,West,270,0.6,5.5,82,0.00,,,0.00,VWS V14.00,2013-02-03 19:14:00,
2013-02-03 21:16:00,57.9,52.5,29.86,ESE,112,1.7,1.7,82,0.00,,,0.00,VWS V14.00,2013-02-03 19:16:00,
2013-02-03 21:17:00,57.9,52.5,29.86,ESE,112,1.7,1.7,82,0.00,,,0.00,VWS V14.00,2013-02-03 19:17:00,
2013-02-03 21:19:00,57.9,52.5,29.86,SSE,158,3.1,3.1,82,0.00,,,0.00,VWS V14.00,2013-02-03 19:19:00,
2013-02-03 21:21:00,57.9,52.5,29.86,SSE,158,13.4,13.4,82,0.00,,,0.00,VWS V14.00,2013-02-03 19:21:00,
2013-02-03 21:23:00,57.9,52.5,29.86,SE,135,2.9,13.4,82,0.00,,,0.00,VWS V14.00,2013-02-03 19:23:00,
2013-02-03 21:24:00,57.9,52.5,29.87,SSW,202,4.2,13.4,82,0.00,,,0.00,VWS V14.00,2013-02-03 19:24:00,
2013-02-03 21:26:00,57.9,52.5,29.87,NE,45,0.0,4.2,82,0.00,,,0.00,VWS V14.00,2013-02-03 19:26:00,
2013-02-03 21:27:00,57.9,52.5,29.87,NE,45,0.0,4.2,82,0.00,,,0.00,VWS V14.00,2013-02-03 19:27:00,
2013-02-03 21:28:00,57.9,52.5,29.87,NE,45,0.0,4.2,82,0.00,,,0.00,VWS V14.00,2013-02-03 19:28:00,
2013-02-03 21:29:00,57.7,52.2,29.87,SE,135,1.1,4.2,82,0.00,,,0.00,VWS V14.00,2013-02-03 19:29:00,
2013-02-03 21:31:00,57.9,52.5,29.87,WSW,248,0.0,1.1,82,0.00,,,0.00,VWS V14.00,2013-02-03 19:31:00,
2013-02-03 21:32:00,57.9,52.5,29.87,WSW,248,0.0,1.1,82,0.00,,,0.00,VWS V14.00,2013-02-03 19:32:00,
2013-02-03 21:33:00,57.9,52.5,29.87,WSW,248,0.0,1.1,82,0.00,,,0.00,VWS V14.00,2013-02-03 19:33:00,
2013-02-03 21:35:00,57.9,52.5,29.87,SW,225,2.2,2.2,82,0.00,,,0.00,VWS V14.00,2013-02-03 19:35:00,
2013-02-03 21:36:00,57.9,52.5,29.87,SW,225,2.2,2.2,82,0.00,,,0.00,VWS V14.00,2013-02-03 19:36:00,
2013-02-03 21:37:00,57.9,52.5,29.87,SSE,158,3.3,3.3,82,0.00,,,0.00,VWS V14.00,2013-02-03 19:37:00,
2013-02-03 21:38:00,57.9,52.5,29.87,SSE,158,3.3,3.3,82,0.00,,,0.00,VWS V14.00,2013-02-03 19:38:00,
2013-02-03 21:40:00,57.7,52.2,29.87,South,180,7.8,7.8,82,0.00,,,0.00,VWS V14.00,2013-02-03 19:40:00,
2013-02-03 21:41:00,57.7,52.2,29.87,SSE,158,2.4,7.8,82,0.00,,,0.00,VWS V14.00,2013-02-03 19:41:00,
2013-02-03 21:42:00,57.7,52.2,29.87,SSE,158,2.4,7.8,82,0.00,,,0.00,VWS V14.00,2013-02-03 19:42:00,
2013-02-03 21:43:00,57.7,52.2,29.87,SSE,158,2.4,7.8,82,0.00,,,0.00,VWS V14.00,2013-02-03 19:43:00,
2013-02-03 21:45:00,57.9,52.5,29.87,SE,135,1.3,1.3,82,0.00,,,0.00,VWS V14.00,2013-02-03 19:45:00,
2013-02-03 21:46:00,57.7,52.2,29.87,SSE,158,2.0,2.0,82,0.00,,,0.00,VWS V14.00,2013-02-03 19:46:00,
2013-02-03 21:47:00,57.7,52.2,29.87,SSE,158,2.0,2.0,82,0.00,,,0.00,VWS V14.00,2013-02-03 19:47:00,
2013-02-03 21:48:00,57.7,52.2,29.88,SW,225,3.8,3.8,82,0.00,,,0.00,VWS V14.00,2013-02-03 19:48:00,
2013-02-03 21:50:00,57.7,52.6,29.87,SSE,158,2.2,2.2,83,0.00,,,0.00,VWS V14.00,2013-02-03 19:50:00,
2013-02-03 21:51:00,57.7,52.6,29.87,SSE,158,2.2,2.2,83,0.00,,,0.00,VWS V14.00,2013-02-03 19:51:00,
2013-02-03 21:52:00,57.7,52.6,29.87,SW,225,2.6,2.6,83,0.00,,,0.00,VWS V14.00,2013-02-03 19:52:00,
2013-02-03 21:53:00,57.7,52.6,29.87,SW,225,2.6,2.6,83,0.00,,,0.00,VWS V14.00,2013-02-03 19:53:00,
2013-02-03 21:55:00,57.7,52.6,29.88,SSE,158,2.4,2.4,83,0.00,,,0.00,VWS V14.00,2013-02-03 19:55:00,
2013-02-03 21:56:00,57.7,52.6,29.88,SSW,202,6.7,6.7,83,0.00,,,0.00,VWS V14.00,2013-02-03 19:56:00,
2013-02-03 21:57:00,57.7,52.6,29.88,SSW,202,6.7,6.7,83,0.00,,,0.00,VWS V14.00,2013-02-03 19:57:00,
2013-02-03 21:58:00,57.7,52.6,29.88,SSW,202,6.7,6.7,83,0.00,,,0.00,VWS V14.00,2013-02-03 19:58:00,
2013-02-03 22:00:00,57.7,52.6,29.88,SE,135,5.8,5.8,83,0.00,,,0.00,VWS V14.00,2013-02-03 20:00:00,
2013-02-03 22:02:00,57.7,52.6,29.88,ESE,112,1.5,5.8,83,0.00,,,0.00,VWS V14.00,2013-02-03 20:02:00,
2013-02-03 22:03:00,57.7,52.6,29.88,SSE,158,0.0,5.8,83,0.00,,,0.00,VWS V14.00,2013-02-03 20:03:00,
2013-02-03 22:05:00,57.7,52.6,29.88,SE,135,3.5,3.5,83,0.00,,,0.00,VWS V14.00,2013-02-03 20:05:00,
2013-02-03 22:07:00,57.7,52.6,29.88,SW,225,7.6,7.6,83,0.00,,,0.00,VWS V14.00,2013-02-03 20:07:00,
2013-02-03 22:08:00,57.7,52.6,29.88,SW,225,7.6,7.6,83,0.00,,,0.00,VWS V14.00,2013-02-03 20:08:00,
2013-02-03 22:10:00,57.7,52.6,29.88,SSW,202,1.5,1.5,83,0.00,,,0.00,VWS V14.00,2013-02-03 20:10:00,
2013-02-03 22:12:00,57.7,52.6,29.88,SE,135,0.0,1.5,83,0.00,,,0.00,VWS V14.00,2013-02-03 20:12:00,
2013-02-03 22:13:00,57.7,52.6,29.88,SE,135,0.0,1.5,83,0.00,,,0.00,VWS V14.00,2013-02-03 20:13:00,
2013-02-03 22:15:00,57.5,52.4,29.89,West,270,4.6,4.6,83,0.00,,,0.00,VWS V14.00,2013-02-03 20:15:00,
2013-02-03 22:17:00,57.7,52.6,29.88,SW,225,8.9,8.9,83,0.00,,,0.00,VWS V14.00,2013-02-03 20:17:00,
2013-02-03 22:18:00,57.7,52.6,29.88,ESE,112,0.0,8.9,83,0.00,,,0.00,VWS V14.00,2013-02-03 20:18:00,
2013-02-03 22:21:00,57.7,52.6,29.88,SW,225,3.8,3.8,83,0.00,,,0.00,VWS V14.00,2013-02-03 20:21:00,
2013-02-03 22:22:00,57.7,52.6,29.88,SSW,202,10.9,10.9,83,0.00,,,0.00,VWS V14.00,2013-02-03 20:22:00,
2013-02-03 22:23:00,57.7,52.6,29.88,SSW,202,10.9,10.9,83,0.00,,,0.00,VWS V14.00,2013-02-03 20:23:00,
2013-02-03 22:26:00,57.5,52.4,29.88,SW,225,8.2,8.2,83,0.00,,,0.00,VWS V14.00,2013-02-03 20:26:00,
2013-02-03 22:27:00,57.5,52.4,29.88,SW,225,8.2,8.2,83,0.00,,,0.00,VWS V14.00,2013-02-03 20:27:00,
2013-02-03 22:28:00,57.5,52.4,29.88,SW,225,8.2,8.2,83,0.00,,,0.00,VWS V14.00,2013-02-03 20:28:00,
2013-02-03 22:29:00,57.5,52.4,29.88,SW,225,8.2,8.2,83,0.00,,,0.00,VWS V14.00,2013-02-03 20:29:00,
2013-02-03 22:31:00,57.5,52.4,29.88,SSW,202,3.8,3.8,83,0.00,,,0.00,VWS V14.00,2013-02-03 20:31:00,
2013-02-03 22:32:00,57.5,52.4,29.88,SSW,202,3.8,3.8,83,0.00,,,0.00,VWS V14.00,2013-02-03 20:32:00,
2013-02-03 22:33:00,57.5,52.4,29.88,SSW,202,3.8,3.8,83,0.00,,,0.00,VWS V14.00,2013-02-03 20:33:00,
2013-02-03 22:34:00,57.5,52.4,29.88,SSW,202,8.9,8.9,83,0.00,,,0.00,VWS V14.00,2013-02-03 20:34:00,
2013-02-03 22:36:00,57.5,52.4,29.88,SE,135,2.4,2.4,83,0.00,,,0.00,VWS V14.00,2013-02-03 20:36:00,
2013-02-03 22:37:00,57.5,52.4,29.88,ESE,112,2.2,2.4,83,0.00,,,0.00,VWS V14.00,2013-02-03 20:37:00,
2013-02-03 22:38:00,57.5,52.4,29.88,ESE,112,2.2,2.4,83,0.00,,,0.00,VWS V14.00,2013-02-03 20:38:00,
2013-02-03 22:39:00,57.5,52.4,29.88,ESE,112,2.2,2.4,83,0.00,,,0.00,VWS V14.00,2013-02-03 20:39:00,
2013-02-03 22:41:00,57.5,52.4,29.89,ESE,112,6.2,6.2,83,0.00,,,0.00,VWS V14.00,2013-02-03 20:41:00,
2013-02-03 22:42:00,57.5,52.4,29.88,ESE,112,6.2,6.2,83,0.00,,,0.00,VWS V14.00,2013-02-03 20:42:00,
2013-02-03 22:43:00,57.5,52.4,29.88,ESE,112,6.2,6.2,83,0.00,,,0.00,VWS V14.00,2013-02-03 20:43:00,
2013-02-03 22:44:00,57.5,52.4,29.88,ESE,112,6.2,6.2,83,0.00,,,0.00,VWS V14.00,2013-02-03 20:44:00,
2013-02-03 22:46:00,57.5,52.4,29.88,SW,225,5.8,8.7,83,0.00,,,0.00,VWS V14.00,2013-02-03 20:46:00,
2013-02-03 22:47:00,57.5,52.4,29.89,SW,225,5.8,8.7,83,0.00,,,0.00,VWS V14.00,2013-02-03 20:47:00,
2013-02-03 22:48:00,57.5,52.4,29.89,SW,225,5.8,8.7,83,0.00,,,0.00,VWS V14.00,2013-02-03 20:48:00,
2013-02-03 22:49:00,57.5,52.4,29.88,South,180,1.7,8.7,83,0.00,,,0.00,VWS V14.00,2013-02-03 20:49:00,
2013-02-03 22:51:00,57.5,52.4,29.88,SSE,158,3.5,3.5,83,0.00,,,0.00,VWS V14.00,2013-02-03 20:51:00,
2013-02-03 22:52:00,57.5,52.4,29.88,SSE,158,6.9,6.9,83,0.00,,,0.00,VWS V14.00,2013-02-03 20:52:00,
2013-02-03 22:53:00,57.5,52.4,29.88,SSE,158,6.9,6.9,83,0.00,,,0.00,VWS V14.00,2013-02-03 20:53:00,
2013-02-03 22:54:00,57.3,52.2,29.88,ESE,112,3.5,6.9,83,0.00,,,0.00,VWS V14.00,2013-02-03 20:54:00,
2013-02-03 22:56:00,57.3,52.2,29.88,SSE,158,3.5,3.5,83,0.00,,,0.00,VWS V14.00,2013-02-03 20:56:00,
2013-02-03 22:57:00,57.3,52.2,29.88,SSE,158,3.5,3.5,83,0.00,,,0.00,VWS V14.00,2013-02-03 20:57:00,
2013-02-03 22:58:00,57.3,52.2,29.88,SSE,158,3.5,3.5,83,0.00,,,0.00,VWS V14.00,2013-02-03 20:58:00,
2013-02-03 22:59:00,57.3,52.2,29.88,West,270,2.0,3.5,83,0.00,,,0.00,VWS V14.00,2013-02-03 20:59:00,
2013-02-03 23:01:00,57.3,52.2,29.88,SSE,158,1.3,2.0,83,0.00,,,0.00,VWS V14.00,2013-02-03 21:01:00,
2013-02-03 23:03:00,57.3,52.2,29.88,SSE,158,1.3,2.0,83,0.00,,,0.00,VWS V14.00,2013-02-03 21:03:00,
2013-02-03 23:04:00,57.3,52.2,29.88,ESE,112,4.4,4.4,83,0.00,,,0.00,VWS V14.00,2013-02-03 21:04:00,
2013-02-03 23:06:00,57.3,52.2,29.88,ESE,112,1.3,1.3,83,0.00,,,0.00,VWS V14.00,2013-02-03 21:06:00,
2013-02-03 23:08:00,57.3,52.2,29.88,SE,135,4.0,4.0,83,0.00,,,0.00,VWS V14.00,2013-02-03 21:08:00,
2013-02-03 23:09:00,57.3,52.2,29.89,SW,225,2.9,4.0,83,0.00,,,0.00,VWS V14.00,2013-02-03 21:09:00,
2013-02-03 23:11:00,57.3,52.2,29.89,ESE,112,0.8,2.9,83,0.00,,,0.00,VWS V14.00,2013-02-03 21:11:00,
2013-02-03 23:13:00,57.3,52.2,29.89,ESE,112,0.8,2.9,83,0.00,,,0.00,VWS V14.00,2013-02-03 21:13:00,
2013-02-03 23:14:00,57.3,52.5,29.89,SSE,158,2.2,2.9,84,0.00,,,0.00,VWS V14.00,2013-02-03 21:14:00,
2013-02-03 23:16:00,57.3,52.5,29.89,SE,135,6.7,6.7,84,0.00,,,0.00,VWS V14.00,2013-02-03 21:16:00,
2013-02-03 23:18:00,57.3,52.5,29.89,SSE,158,6.2,6.7,84,0.00,,,0.00,VWS V14.00,2013-02-03 21:18:00,
2013-02-03 23:19:00,57.3,52.5,29.89,SSE,158,6.2,6.7,84,0.00,,,0.00,VWS V14.00,2013-02-03 21:19:00,
2013-02-03 23:21:00,57.3,52.5,29.89,East,90,3.3,3.3,84,0.00,,,0.00,VWS V14.00,2013-02-03 21:21:00,
2013-02-03 23:23:00,57.3,52.5,29.89,SE,135,0.8,3.3,84,0.00,,,0.00,VWS V14.00,2013-02-03 21:23:00,
2013-02-03 23:24:00,57.3,52.5,29.89,ESE,112,1.1,3.3,84,0.00,,,0.00,VWS V14.00,2013-02-03 21:24:00,
2013-02-03 23:26:00,57.3,52.5,29.89,SSE,158,4.2,4.2,84,0.00,,,0.00,VWS V14.00,2013-02-03 21:26:00,
2013-02-03 23:28:00,57.3,52.5,29.89,SSE,158,4.2,4.2,84,0.00,,,0.00,VWS V14.00,2013-02-03 21:28:00,
2013-02-03 23:29:00,57.3,52.5,29.89,ENE,68,6.9,6.9,84,0.00,,,0.00,VWS V14.00,2013-02-03 21:29:00,
2013-02-03 23:31:00,57.3,52.5,29.89,South,180,1.1,6.9,84,0.00,,,0.00,VWS V14.00,2013-02-03 21:31:00,
2013-02-03 23:33:00,57.3,52.5,29.89,WSW,248,4.9,6.9,84,0.00,,,0.00,VWS V14.00,2013-02-03 21:33:00,
2013-02-03 23:34:00,57.3,52.5,29.89,WSW,248,4.9,6.9,84,0.00,,,0.00,VWS V14.00,2013-02-03 21:34:00,
2013-02-03 23:36:00,57.3,52.5,29.89,SSE,158,3.5,3.5,84,0.00,,,0.00,VWS V14.00,2013-02-03 21:36:00,
2013-02-03 23:38:00,57.3,52.5,29.89,SE,135,2.6,3.5,84,0.00,,,0.00,VWS V14.00,2013-02-03 21:38:00,
2013-02-03 23:39:00,57.3,52.5,29.89,SSW,202,2.4,3.5,84,0.00,,,0.00,VWS V14.00,2013-02-03 21:39:00,
2013-02-03 23:41:00,57.3,52.5,29.89,ESE,112,0.8,2.4,84,0.00,,,0.00,VWS V14.00,2013-02-03 21:41:00,
2013-02-03 23:43:00,57.3,52.5,29.89,ESE,112,0.8,2.4,84,0.00,,,0.00,VWS V14.00,2013-02-03 21:43:00,
2013-02-03 23:44:00,57.3,52.5,29.89,ESE,112,0.8,2.4,84,0.00,,,0.00,VWS V14.00,2013-02-03 21:44:00,
2013-02-03 23:46:00,57.3,52.5,29.89,WNW,292,2.4,2.4,84,0.00,,,0.00,VWS V14.00,2013-02-03 21:46:00,
2013-02-03 23:48:00,57.3,52.5,29.89,SW,225,3.3,3.3,84,0.00,,,0.00,VWS V14.00,2013-02-03 21:48:00,
2013-02-03 23:49:00,57.3,52.5,29.89,SW,225,3.3,3.3,84,0.00,,,0.00,VWS V14.00,2013-02-03 21:49:00,
2013-02-03 23:50:00,57.3,52.5,29.89,SW,225,3.3,3.3,84,0.00,,,0.00,VWS V14.00,2013-02-03 21:50:00,
2013-02-03 23:52:00,57.3,52.5,29.89,SE,135,2.4,2.4,84,0.00,,,0.00,VWS V14.00,2013-02-03 21:52:00,
2013-02-03 23:53:00,57.3,52.5,29.89,South,180,4.2,4.2,84,0.00,,,0.00,VWS V14.00,2013-02-03 21:53:00,
2013-02-03 23:54:00,57.3,52.5,29.89,South,180,4.2,4.2,84,0.00,,,0.00,VWS V14.00,2013-02-03 21:54:00,
2013-02-03 23:55:00,57.3,52.5,29.89,SSW,202,7.3,7.3,84,0.00,,,0.00,VWS V14.00,2013-02-03 21:55:00,
2013-02-03 23:57:00,57.3,52.5,29.89,WNW,292,4.9,7.3,84,0.00,,,0.00,VWS V14.00,2013-02-03 21:57:00,
2013-02-03 23:58:00,57.3,52.5,29.89,WNW,292,4.9,7.3,84,0.00,,,0.00,VWS V14.00,2013-02-03 21:58:00,
2013-02-03 23:59:00,57.3,52.5,29.89,WNW,292,4.9,7.3,84,0.00,,,0.00,VWS V14.00,2013-02-03 21:59:00,